Observation data for Guadalupe Mtns Park on 01/15/2018      Previous  Date  Next       Current Mesonet Observations  Soil Data  Daily Summary Page  Observations in Plain Language
KGU1 150600Z 24000KT 07/M09 A303 RMK A01 T00651086  RH  033%=      5-min Rain = 0
KGU1 150601Z 27003KT 06/M08 A303 RMK A01 T00641084  RH  034%=      5-min Rain = 0
KGU1 150602Z 25002KT 06/M08 A3029 RMK A01 T00641084  RH  034%=      5-min Rain = 0
KGU1 150603Z 27004KT 06/M08 A3029 RMK A01 T00631082  RH  035%=      5-min Rain = 0
KGU1 150604Z 28003KT 06/M08 A3029 RMK A01 T00601082  RH  036%=      5-min Rain = 0
KGU1 150605Z 29002KT 06/M08 A3029 RMK A01 T00591083  RH  036%=      5-min Rain = 0
KGU1 150606Z 29003KT 06/M08 A3029 RMK A01 T00611083  RH  035%=      5-min Rain = 0
KGU1 150607Z 25003KT 06/M09 A3029 RMK A01 T00631086  RH  034%=      5-min Rain = 0
KGU1 150608Z 22002KT 07/M09 A3029 RMK A01 T00681087  RH  033%=      5-min Rain = 0
KGU1 150609Z 25002KT 07/M09 A3029 RMK A01 T00701086  RH  032%=      5-min Rain = 0
KGU1 150610Z 25005KT 07/M09 A3029 RMK A01 T00731086  RH  032%=      5-min Rain = 0
KGU1 150611Z 24002KT 08/M09 A3029 RMK A01 T00771087  RH  031%=      5-min Rain = 0
KGU1 150612Z 25003KT 08/M09 A3029 RMK A01 T00771085  RH  031%=      5-min Rain = 0
KGU1 150613Z 23003KT 08/M09 A3029 RMK A01 T00761085  RH  031%=      5-min Rain = 0
KGU1 150614Z 23004KT 08/M09 A3029 RMK A01 T00761085  RH  031%=      5-min Rain = 0
KGU1 150615Z 23004KT 08/M09 A3029 RMK A01 T00761085  RH  031%=      5-min Rain = 0
KGU1 150616Z 23005KT 08/M08 A3029 RMK A01 T00751084  RH  032%=      5-min Rain = 0
KGU1 150617Z 23005KT 07/M08 A3029 RMK A01 T00741083  RH  032%=      5-min Rain = 0
KGU1 150618Z 21006KT 07/M08 A3029 RMK A01 T00741083  RH  032%=      5-min Rain = 0
KGU1 150619Z 22007KT 07/M08 A3029 RMK A01 T00741083  RH  032%=      5-min Rain = 0
KGU1 150620Z 22006KT 08/M08 A3029 RMK A01 T00751083  RH  032%=      5-min Rain = 0
KGU1 150621Z 22006KT 08/M08 A3029 RMK A01 T00751083  RH  032%=      5-min Rain = 0
KGU1 150622Z 22006KT 08/M08 A3029 RMK A01 T00761083  RH  032%=      5-min Rain = 0
KGU1 150623Z 22006KT 08/M08 A3029 RMK A01 T00771083  RH  032%=      5-min Rain = 0
KGU1 150624Z 22007KT 08/M08 A3029 RMK A01 T00771083  RH  032%=      5-min Rain = 0
KGU1 150625Z 22006KT 08/M08 A3029 RMK A01 T00771083  RH  032%=      5-min Rain = 0
KGU1 150626Z 21007KT 08/M08 A3029 RMK A01 T00781083  RH  031%=      5-min Rain = 0
KGU1 150627Z 21008KT 08/M08 A3029 RMK A01 T00781083  RH  031%=      5-min Rain = 0
KGU1 150628Z 21008KT 08/M08 A3029 RMK A01 T00791082  RH  031%=      5-min Rain = 0
KGU1 150629Z 21007KT 08/M08 A3028 RMK A01 T00791082  RH  031%=      5-min Rain = 0
KGU1 150630Z 21006KT 08/M08 A3028 RMK A01 T00791082  RH  031%=      5-min Rain = 0
KGU1 150631Z 21007KT 08/M08 A3028 RMK A01 T00781083  RH  031%=      5-min Rain = 0
KGU1 150632Z 21007KT 08/M08 A3028 RMK A01 T00781083  RH  031%=      5-min Rain = 0
KGU1 150633Z 22006KT 08/M08 A3028 RMK A01 T00791082  RH  031%=      5-min Rain = 0
KGU1 150634Z 22006KT 08/M08 A3028 RMK A01 T00781082  RH  032%=      5-min Rain = 0
KGU1 150635Z 21006KT 08/M08 A3028 RMK A01 T00771082  RH  032%=      5-min Rain = 0
KGU1 150636Z 21009KT 08/M08 A3028 RMK A01 T00761081  RH  032%=      5-min Rain = 0
KGU1 150637Z 21009KT 08/M08 A3028 RMK A01 T00761082  RH  032%=      5-min Rain = 0
KGU1 150638Z 21008KT 08/M08 A3028 RMK A01 T00781082  RH  032%=      5-min Rain = 0
KGU1 150639Z 21007KT 08/M08 A3028 RMK A01 T00781082  RH  031%=      5-min Rain = 0
KGU1 150640Z 21007KT 08/M08 A3028 RMK A01 T00791082  RH  031%=      5-min Rain = 0
KGU1 150641Z 21007KT 08/M08 A3028 RMK A01 T00791082  RH  031%=      5-min Rain = 0
KGU1 150642Z 21007KT 08/M08 A3028 RMK A01 T00781081  RH  032%=      5-min Rain = 0
KGU1 150643Z 21007KT 08/M08 A3028 RMK A01 T00771082  RH  032%=      5-min Rain = 0
KGU1 150644Z 21007KT 08/M08 A3028 RMK A01 T00781082  RH  032%=      5-min Rain = 0
KGU1 150645Z 22007KT 08/M08 A3028 RMK A01 T00781081  RH  032%=      5-min Rain = 0
KGU1 150646Z 22006KT 08/M08 A3028 RMK A01 T00781081  RH  032%=      5-min Rain = 0
KGU1 150647Z 22008KT 08/M08 A3028 RMK A01 T00791081  RH  032%=      5-min Rain = 0
KGU1 150648Z 22007KT 08/M08 A3028 RMK A01 T00801081  RH  031%=      5-min Rain = 0
KGU1 150649Z 22007KT 08/M08 A3028 RMK A01 T00821081  RH  031%=      5-min Rain = 0
KGU1 150650Z 23007KT 08/M08 A3028 RMK A01 T00831082  RH  031%=      5-min Rain = 0
KGU1 150651Z 23007KT 09/M08 A3028 RMK A01 T00851080  RH  031%=      5-min Rain = 0
KGU1 150652Z 23007KT 09/M08 A3028 RMK A01 T00851080  RH  031%=      5-min Rain = 0
KGU1 150653Z 23007KT 09/M08 A3028 RMK A01 T00861081  RH  030%=      5-min Rain = 0
KGU1 150654Z 22007KT 09/M08 A3027 RMK A01 T00871081  RH  030%=      5-min Rain = 0
KGU1 150655Z 24006KT 09/M08 A3027 RMK A01 T00881080  RH  030%=      5-min Rain = 0
KGU1 150656Z 24006KT 09/M08 A3027 RMK A01 T00881080  RH  030%=      5-min Rain = 0
KGU1 150657Z 23006KT 09/M08 A3027 RMK A01 T00881080  RH  030%=      5-min Rain = 0
KGU1 150658Z 23006KT 09/M08 A3027 RMK A01 T00871079  RH  030%=      5-min Rain = 0
KGU1 150659Z 23007KT 09/M08 A3027 RMK A01 T00871079  RH  030%=      5-min Rain = 0
KGU1 150700Z 23005KT 09/M08 A3027 RMK A01 T00881079  RH  030%=      5-min Rain = 0
KGU1 150701Z 24006KT 09/M08 A3027 RMK A01 T00881079  RH  030%=      5-min Rain = 0
KGU1 150702Z 24008KT 09/M08 A3027 RMK A01 T00881079  RH  030%=      5-min Rain = 0
KGU1 150703Z 24008KT 09/M08 A3027 RMK A01 T00891079  RH  030%=      5-min Rain = 0
KGU1 150704Z 24007KT 09/M08 A3027 RMK A01 T00891079  RH  030%=      5-min Rain = 0
KGU1 150705Z 24007KT 09/M08 A3027 RMK A01 T00901079  RH  030%=      5-min Rain = 0
KGU1 150706Z 23007KT 09/M08 A3027 RMK A01 T00891079  RH  030%=      5-min Rain = 0
KGU1 150707Z 24009KT 09/M08 A3027 RMK A01 T00891080  RH  030%=      5-min Rain = 0
KGU1 150708Z 24010KT 09/M08 A3026 RMK A01 T00901080  RH  030%=      5-min Rain = 0
KGU1 150709Z 25010KT 09/M08 A3026 RMK A01 T00911080  RH  029%=      5-min Rain = 0
KGU1 150710Z 25010KT 09/M08 A3026 RMK A01 T00911079  RH  030%=      5-min Rain = 0
KGU1 150711Z 26011KT 09/M08 A3026 RMK A01 T00911079  RH  030%=      5-min Rain = 0
KGU1 150712Z 26012KT 09/M08 A3026 RMK A01 T00921080  RH  029%=      5-min Rain = 0
KGU1 150713Z 25011KT 10/M08 A3026 RMK A01 T00951080  RH  028%=      5-min Rain = 0
KGU1 150714Z 25011KT 10/M08 A3026 RMK A01 T00961078  RH  029%=      5-min Rain = 0
KGU1 150715Z 27010KT 09/M08 A3026 RMK A01 T00941077  RH  029%=      5-min Rain = 0
KGU1 150716Z 26010KT 09/M08 A3026 RMK A01 T00931077  RH  030%=      5-min Rain = 0
KGU1 150717Z 26013KT 09/M08 A3026 RMK A01 T00911078  RH  030%=      5-min Rain = 0
KGU1 150718Z 25012KT 09/M08 A3026 RMK A01 T00931080  RH  029%=      5-min Rain = 0
KGU1 150719Z 26012KT 10/M08 A3026 RMK A01 T00961081  RH  028%=      5-min Rain = 0
KGU1 150720Z 27013KT 10/M08 A3026 RMK A01 T00981080  RH  028%=      5-min Rain = 0
KGU1 150721Z 26013KT 10/M08 A3026 RMK A01 T00981080  RH  028%=      5-min Rain = 0
KGU1 150722Z 27012KT 10/M08 A3026 RMK A01 T00971078  RH  029%=      5-min Rain = 0
KGU1 150723Z 26012KT 09/M08 A3026 RMK A01 T00941078  RH  029%=      5-min Rain = 0
KGU1 150724Z 26013KT 10/M08 A3026 RMK A01 T00951080  RH  029%=      5-min Rain = 0
KGU1 150725Z 26012KT 10/M08 A3026 RMK A01 T00971080  RH  028%=      5-min Rain = 0
KGU1 150726Z 26013KT 10/M08 A3026 RMK A01 T00991081  RH  028%=      5-min Rain = 0
KGU1 150727Z 27014KT 10/M08 A3026 RMK A01 T01001081  RH  027%=      5-min Rain = 0
KGU1 150728Z 25010KT 10/M08 A3026 RMK A01 T01001081  RH  027%=      5-min Rain = 0
KGU1 150729Z 25014KT 10/M08 A3025 RMK A01 T01021082  RH  027%=      5-min Rain = 0
KGU1 150730Z 26014KT 10/M08 A3025 RMK A01 T01031082  RH  027%=      5-min Rain = 0
KGU1 150731Z 26013KT 10/M08 A3025 RMK A01 T01041082  RH  027%=      5-min Rain = 0
KGU1 150732Z 26012KT 10/M08 A3025 RMK A01 T01041081  RH  027%=      5-min Rain = 0
KGU1 150733Z 26010KT 10/M08 A3025 RMK A01 T01031080  RH  027%=      5-min Rain = 0
KGU1 150734Z 25010KT 10/M08 A3025 RMK A01 T01001079  RH  028%=      5-min Rain = 0
KGU1 150735Z 25011KT 10/M08 A3025 RMK A01 T00971080  RH  028%=      5-min Rain = 0
KGU1 150736Z 25012KT 09/M08 A3025 RMK A01 T00931080  RH  029%=      5-min Rain = 0
KGU1 150737Z 24012KT 09/M08 A3025 RMK A01 T00921082  RH  029%=      5-min Rain = 0
KGU1 150738Z 24013KT 09/M08 A3025 RMK A01 T00931083  RH  028%=      5-min Rain = 0
KGU1 150739Z 25012KT 09/M08 A3025 RMK A01 T00921082  RH  029%=      5-min Rain = 0
KGU1 150740Z 24012KT 09/M08 A3025 RMK A01 T00941083  RH  028%=      5-min Rain = 0
KGU1 150741Z 24012KT 09/M08 A3025 RMK A01 T00941083  RH  028%=      5-min Rain = 0
KGU1 150742Z 24011KT 09/M08 A3025 RMK A01 T00931083  RH  028%=      5-min Rain = 0
KGU1 150743Z 23011KT 09/M08 A3025 RMK A01 T00901082  RH  029%=      5-min Rain = 0
KGU1 150744Z 24011KT 09/M08 A3025 RMK A01 T00881083  RH  029%=      5-min Rain = 0
KGU1 150745Z 23012KT 09/M08 A3025 RMK A01 T00861083  RH  030%=      5-min Rain = 0
KGU1 150746Z 23011KT 08/M08 A3025 RMK A01 T00841083  RH  030%=      5-min Rain = 0
KGU1 150747Z 23010KT 08/M08 A3025 RMK A01 T00831083  RH  030%=      5-min Rain = 0
KGU1 150748Z 24010KT 08/M08 A3025 RMK A01 T00821083  RH  030%=      5-min Rain = 0
KGU1 150749Z 23009KT 08/M08 A3025 RMK A01 T00821084  RH  030%=      5-min Rain = 0
KGU1 150750Z 23010KT 08/M08 A3025 RMK A01 T00821084  RH  030%=      5-min Rain = 0
KGU1 150751Z 22010KT 08/M08 A3025 RMK A01 T00811083  RH  031%=      5-min Rain = 0
KGU1 150752Z 22010KT 08/M08 A3025 RMK A01 T00801084  RH  031%=      5-min Rain = 0
KGU1 150753Z 22011KT 08/M08 A3025 RMK A01 T00791084  RH  031%=      5-min Rain = 0
KGU1 150754Z 22010KT 08/M09 A3025 RMK A01 T00791085  RH  031%=      5-min Rain = 0
KGU1 150755Z 22010KT 08/M08 A3025 RMK A01 T00781084  RH  031%=      5-min Rain = 0
KGU1 150756Z 22011KT 08/M09 A3025 RMK A01 T00781085  RH  031%=      5-min Rain = 0
KGU1 150757Z 22011KT 08/M08 A3025 RMK A01 T00781084  RH  031%=      5-min Rain = 0
KGU1 150758Z 22010KT 08/M09 A3025 RMK A01 T00771085  RH  031%=      5-min Rain = 0
KGU1 150759Z 21010KT 08/M09 A3025 RMK A01 T00771085  RH  031%=      5-min Rain = 0
KGU1 150800Z 21009KT 08/M09 A3025 RMK A01 T00771085  RH  031%=      5-min Rain = 0
KGU1 150801Z 22010KT 08/M08 A3025 RMK A01 T00761084  RH  031%=      5-min Rain = 0
KGU1 150802Z 21011KT 08/M09 A3025 RMK A01 T00771085  RH  031%=      5-min Rain = 0
KGU1 150803Z 21011KT 08/M09 A3025 RMK A01 T00771085  RH  031%=      5-min Rain = 0
KGU1 150804Z 22008KT 08/M09 A3025 RMK A01 T00771085  RH  031%=      5-min Rain = 0
KGU1 150805Z 22008KT 08/M08 A3025 RMK A01 T00771084  RH  031%=      5-min Rain = 0
KGU1 150806Z 21009KT 08/M08 A3025 RMK A01 T00761084  RH  031%=      5-min Rain = 0
KGU1 150807Z 21011KT 08/M09 A3025 RMK A01 T00751085  RH  031%=      5-min Rain = 0
KGU1 150808Z 21011KT 08/M09 A3025 RMK A01 T00761085  RH  031%=      5-min Rain = 0
KGU1 150809Z 20010KT 08/M09 A3024 RMK A01 T00761085  RH  031%=      5-min Rain = 0
KGU1 150810Z 20010KT 08/M09 A3024 RMK A01 T00761085  RH  031%=      5-min Rain = 0
KGU1 150811Z 20010KT 08/M09 A3024 RMK A01 T00761085  RH  031%=      5-min Rain = 0
KGU1 150812Z 20011KT 08/M09 A3024 RMK A01 T00761085  RH  031%=      5-min Rain = 0
KGU1 150813Z 20010KT 08/M09 A3024 RMK A01 T00771085  RH  031%=      5-min Rain = 0
KGU1 150814Z 20010KT 08/M08 A3024 RMK A01 T00761084  RH  031%=      5-min Rain = 0
KGU1 150815Z 21011KT 08/M09 A3024 RMK A01 T00751085  RH  032%=      5-min Rain = 0
KGU1 150816Z 21012KT 07/M09 A3024 RMK A01 T00741085  RH  032%=      5-min Rain = 0
KGU1 150817Z 21012KT 07/M09 A3024 RMK A01 T00741085  RH  032%=      5-min Rain = 0
KGU1 150818Z 20011KT 07/M09 A3024 RMK A01 T00741085  RH  032%=      5-min Rain = 0
KGU1 150819Z 20010KT 07/M09 A3024 RMK A01 T00741085  RH  032%=      5-min Rain = 0
KGU1 150820Z 21012KT 07/M09 A3024 RMK A01 T00741085  RH  032%=      5-min Rain = 0
KGU1 150821Z 21013KT 07/M09 A3024 RMK A01 T00741085  RH  032%=      5-min Rain = 0
KGU1 150822Z 20012KT 08/M09 A3024 RMK A01 T00751086  RH  031%=      5-min Rain = 0
KGU1 150823Z 21012KT 08/M09 A3024 RMK A01 T00751085  RH  032%=      5-min Rain = 0
KGU1 150824Z 21012KT 07/M09 A3024 RMK A01 T00741085  RH  032%=      5-min Rain = 0
KGU1 150825Z 21011KT 07/M09 A3024 RMK A01 T00741085  RH  032%=      5-min Rain = 0
KGU1 150826Z 20011KT 07/M09 A3024 RMK A01 T00741085  RH  032%=      5-min Rain = 0
KGU1 150827Z 20011KT 07/M09 A3024 RMK A01 T00741085  RH  032%=      5-min Rain = 0
KGU1 150828Z 20013KT 07/M09 A3024 RMK A01 T00731085  RH  032%=      5-min Rain = 0
KGU1 150829Z 19013KT 07/M09 A3024 RMK A01 T00731085  RH  032%=      5-min Rain = 0
KGU1 150830Z 19013KT 07/M09 A3024 RMK A01 T00731085  RH  032%=      5-min Rain = 0
KGU1 150831Z 19014KT 07/M09 A3024 RMK A01 T00731085  RH  032%=      5-min Rain = 0
KGU1 150832Z 20012KT 07/M09 A3024 RMK A01 T00731086  RH  032%=      5-min Rain = 0
KGU1 150833Z 20011KT 07/M09 A3024 RMK A01 T00721085  RH  032%=      5-min Rain = 0
KGU1 150834Z 19012KT 07/M09 A3024 RMK A01 T00711085  RH  032%=      5-min Rain = 0
KGU1 150835Z 19013KT 07/M09 A3023 RMK A01 T00711085  RH  032%=      5-min Rain = 0
KGU1 150836Z 19013KT 07/M09 A3023 RMK A01 T00711086  RH  032%=      5-min Rain = 0
KGU1 150837Z 19012KT 07/M09 A3023 RMK A01 T00711085  RH  032%=      5-min Rain = 0
KGU1 150838Z 19012KT 07/M09 A3024 RMK A01 T00711085  RH  032%=      5-min Rain = 0
KGU1 150839Z 19011KT 07/M09 A3023 RMK A01 T00701085  RH  033%=      5-min Rain = 0
KGU1 150840Z 20011KT 07/M09 A3023 RMK A01 T00691085  RH  033%=      5-min Rain = 0
KGU1 150841Z 20011KT 07/M09 A3023 RMK A01 T00681085  RH  033%=      5-min Rain = 0
KGU1 150842Z 20009KT 07/M08 A3023 RMK A01 T00671084  RH  033%=      5-min Rain = 0
KGU1 150843Z 20009KT 07/M08 A3023 RMK A01 T00661084  RH  034%=      5-min Rain = 0
KGU1 150844Z 20009KT 07/M09 A3023 RMK A01 T00651085  RH  034%=      5-min Rain = 0
KGU1 150845Z 19008KT 07/M08 A3023 RMK A01 T00651084  RH  034%=      5-min Rain = 0
KGU1 150846Z 19012KT 06/M08 A3023 RMK A01 T00641084  RH  034%=      5-min Rain = 0
KGU1 150847Z 19009KT 06/M08 A3023 RMK A01 T00631084  RH  034%=      5-min Rain = 0
KGU1 150848Z 19010KT 06/M08 A3023 RMK A01 T00621084  RH  035%=      5-min Rain = 0
KGU1 150849Z 19009KT 06/M08 A3023 RMK A01 T00621084  RH  035%=      5-min Rain = 0
KGU1 150850Z 20007KT 06/M08 A3023 RMK A01 T00611084  RH  035%=      5-min Rain = 0
KGU1 150851Z 20007KT 06/M08 A3023 RMK A01 T00601083  RH  035%=      5-min Rain = 0
KGU1 150852Z 21008KT 06/M08 A3024 RMK A01 T00601083  RH  035%=      5-min Rain = 0
KGU1 150853Z 21008KT 06/M08 A3023 RMK A01 T00591083  RH  036%=      5-min Rain = 0
KGU1 150854Z 22009KT 06/M08 A3023 RMK A01 T00581083  RH  036%=      5-min Rain = 0
KGU1 150855Z 21008KT 06/M08 A3023 RMK A01 T00591084  RH  035%=      5-min Rain = 0
KGU1 150856Z 19008KT 06/M09 A3023 RMK A01 T00591085  RH  035%=      5-min Rain = 0
KGU1 150857Z 18009KT 06/M08 A3023 RMK A01 T00591084  RH  035%=      5-min Rain = 0
KGU1 150858Z 19007KT 06/M08 A3023 RMK A01 T00591084  RH  035%=      5-min Rain = 0
KGU1 150859Z 19007KT 06/M08 A3023 RMK A01 T00591083  RH  036%=      5-min Rain = 0
KGU1 150900Z 20006KT 06/M08 A3023 RMK A01 T00581083  RH  036%=      5-min Rain = 0
KGU1 150901Z 20008KT 06/M08 A3023 RMK A01 T00571083  RH  036%=      5-min Rain = 0
KGU1 150902Z 19008KT 06/M08 A3023 RMK A01 T00571084  RH  036%=      5-min Rain = 0
KGU1 150903Z 20007KT 06/M08 A3023 RMK A01 T00571084  RH  036%=      5-min Rain = 0
KGU1 150904Z 21007KT 06/M08 A3023 RMK A01 T00571083  RH  036%=      5-min Rain = 0
KGU1 150905Z 21008KT 06/M08 A3023 RMK A01 T00561083  RH  037%=      5-min Rain = 0
KGU1 150906Z 21008KT 06/M08 A3023 RMK A01 T00551083  RH  037%=      5-min Rain = 0
KGU1 150907Z 22007KT 06/M08 A3023 RMK A01 T00551084  RH  036%=      5-min Rain = 0
KGU1 150908Z 20007KT 06/M08 A3023 RMK A01 T00551083  RH  037%=      5-min Rain = 0
KGU1 150909Z 19007KT 05/M08 A3023 RMK A01 T00541082  RH  037%=      5-min Rain = 0
KGU1 150910Z 19007KT 05/M08 A3023 RMK A01 T00531082  RH  038%=      5-min Rain = 0
KGU1 150911Z 20007KT 05/M08 A3023 RMK A01 T00521083  RH  037%=      5-min Rain = 0
KGU1 150912Z 22008KT 05/M08 A3023 RMK A01 T00531083  RH  037%=      5-min Rain = 0
KGU1 150913Z 20007KT 05/M08 A3023 RMK A01 T00531082  RH  038%=      5-min Rain = 0
KGU1 150914Z 21009KT 05/M08 A3023 RMK A01 T00531083  RH  037%=      5-min Rain = 0
KGU1 150915Z 20010KT 05/M08 A3023 RMK A01 T00531084  RH  037%=      5-min Rain = 0
KGU1 150916Z 20007KT 05/M08 A3023 RMK A01 T00541084  RH  037%=      5-min Rain = 0
KGU1 150917Z 21006KT 05/M09 A3023 RMK A01 T00541085  RH  036%=      5-min Rain = 0
KGU1 150918Z 23005KT 05/M09 A3023 RMK A01 T00541085  RH  036%=      5-min Rain = 0
KGU1 150919Z 21004KT 05/M08 A3023 RMK A01 T00541084  RH  037%=      5-min Rain = 0
KGU1 150920Z 19010KT 05/M08 A3022 RMK A01 T00531083  RH  037%=      5-min Rain = 0
KGU1 150921Z 20010KT 05/M08 A3022 RMK A01 T00531083  RH  037%=      5-min Rain = 0
KGU1 150922Z 20008KT 05/M08 A3023 RMK A01 T00531083  RH  037%=      5-min Rain = 0
KGU1 150923Z 20008KT 05/M08 A3022 RMK A01 T00521083  RH  037%=      5-min Rain = 0
KGU1 150924Z 20008KT 05/M08 A3022 RMK A01 T00521084  RH  037%=      5-min Rain = 0
KGU1 150925Z 19008KT 05/M09 A3022 RMK A01 T00531085  RH  037%=      5-min Rain = 0
KGU1 150926Z 18008KT 06/M09 A3022 RMK A01 T00551086  RH  036%=      5-min Rain = 0
KGU1 150927Z 18008KT 06/M08 A3022 RMK A01 T00561084  RH  036%=      5-min Rain = 0
KGU1 150928Z 20009KT 06/M09 A3022 RMK A01 T00561085  RH  036%=      5-min Rain = 0
KGU1 150929Z 21008KT 06/M09 A3022 RMK A01 T00571085  RH  036%=      5-min Rain = 0
KGU1 150930Z 20006KT 06/M08 A3022 RMK A01 T00561084  RH  036%=      5-min Rain = 0
KGU1 150931Z 20007KT 06/M08 A3022 RMK A01 T00561084  RH  036%=      5-min Rain = 0
KGU1 150932Z 21006KT 06/M08 A3022 RMK A01 T00551084  RH  036%=      5-min Rain = 0
KGU1 150933Z 21008KT 06/M08 A3022 RMK A01 T00551084  RH  036%=      5-min Rain = 0
KGU1 150934Z 21006KT 06/M09 A3022 RMK A01 T00561085  RH  036%=      5-min Rain = 0
KGU1 150935Z 22004KT 06/M09 A3022 RMK A01 T00571085  RH  035%=      5-min Rain = 0
KGU1 150936Z 20006KT 06/M09 A3022 RMK A01 T00581086  RH  035%=      5-min Rain = 0
KGU1 150937Z 21006KT 06/M09 A3022 RMK A01 T00581085  RH  035%=      5-min Rain = 0
KGU1 150938Z 22006KT 06/M09 A3022 RMK A01 T00581085  RH  035%=      5-min Rain = 0
KGU1 150939Z 24004KT 06/M09 A3022 RMK A01 T00571085  RH  036%=      5-min Rain = 0
KGU1 150940Z 23005KT 06/M09 A3022 RMK A01 T00571085  RH  036%=      5-min Rain = 0
KGU1 150941Z 23005KT 06/M08 A3022 RMK A01 T00551083  RH  036%=      5-min Rain = 0
KGU1 150942Z 25005KT 05/M08 A3022 RMK A01 T00541083  RH  037%=      5-min Rain = 0
KGU1 150943Z 28004KT 05/M08 A3022 RMK A01 T00531083  RH  037%=      5-min Rain = 0
KGU1 150944Z 25003KT 05/M09 A3022 RMK A01 T00541086  RH  036%=      5-min Rain = 0
KGU1 150945Z 20003KT 06/M09 A3022 RMK A01 T00571089  RH  034%=      5-min Rain = 0
KGU1 150946Z 21004KT 06/M09 A3022 RMK A01 T00621089  RH  033%=      5-min Rain = 0
KGU1 150947Z 18006KT 06/M09 A3021 RMK A01 T00641087  RH  033%=      5-min Rain = 0
KGU1 150948Z 21005KT 06/M09 A3021 RMK A01 T00631086  RH  034%=      5-min Rain = 0
KGU1 150949Z 26003KT 06/M09 A3022 RMK A01 T00621086  RH  034%=      5-min Rain = 0
KGU1 150950Z 22004KT 06/M09 A3022 RMK A01 T00621088  RH  034%=      5-min Rain = 0
KGU1 150951Z 21003KT 06/M09 A3021 RMK A01 T00631087  RH  034%=      5-min Rain = 0
KGU1 150952Z 17005KT 06/M09 A3021 RMK A01 T00631087  RH  033%=      5-min Rain = 0
KGU1 150953Z 22005KT 06/M09 A3021 RMK A01 T00631086  RH  034%=      5-min Rain = 0
KGU1 150954Z 23006KT 06/M09 A3021 RMK A01 T00631087  RH  034%=      5-min Rain = 0
KGU1 150955Z 17005KT 07/M09 A3021 RMK A01 T00651088  RH  033%=      5-min Rain = 0
KGU1 150956Z 21004KT 07/M09 A3021 RMK A01 T00671087  RH  033%=      5-min Rain = 0
KGU1 150957Z 25006KT 07/M09 A3021 RMK A01 T00681087  RH  033%=      5-min Rain = 0
KGU1 150958Z 24005KT 07/M09 A3021 RMK A01 T00691086  RH  033%=      5-min Rain = 0
KGU1 150959Z 22005KT 07/M09 A3021 RMK A01 T00711087  RH  032%=      5-min Rain = 0
KGU1 151000Z 16004KT 08/M09 A3021 RMK A01 T00761091  RH  030%=      5-min Rain = 0
KGU1 151001Z 20005KT 08/M09 A3021 RMK A01 T00821091  RH  029%=      5-min Rain = 0
KGU1 151002Z 19006KT 09/M09 A3021 RMK A01 T00861091  RH  028%=      5-min Rain = 0
KGU1 151003Z 21009KT 09/M09 A3021 RMK A01 T00881089  RH  028%=      5-min Rain = 0
KGU1 151004Z 23006G12KT 09/M09 A3021 RMK A01 T00911088  RH  027%=      5-min Rain = 0
KGU1 151005Z 26008KT 10/M09 A3021 RMK A01 T00951089  RH  027%=      5-min Rain = 0
KGU1 151006Z 24004KT 10/M09 A3021 RMK A01 T00981089  RH  026%=      5-min Rain = 0
KGU1 151007Z 29006KT 10/M09 A3021 RMK A01 T01001088  RH  026%=      5-min Rain = 0
KGU1 151008Z 26007KT 10/M09 A3021 RMK A01 T01011087  RH  026%=      5-min Rain = 0
KGU1 151009Z 29008G16KT 10/M09 A3021 RMK A01 T01001086  RH  026%=      5-min Rain = 0
KGU1 151010Z 30008G13KT 10/M09 A3021 RMK A01 T01021088  RH  026%=      5-min Rain = 0
KGU1 151011Z 28003KT 10/M09 A3021 RMK A01 T01031087  RH  026%=      5-min Rain = 0
KGU1 151012Z 28003KT 10/M09 A3021 RMK A01 T01031088  RH  026%=      5-min Rain = 0
KGU1 151013Z 29009G15KT 10/M09 A302 RMK A01 T01021088  RH  026%=      5-min Rain = 0
KGU1 151014Z 28008KT 10/M09 A302 RMK A01 T01021087  RH  026%=      5-min Rain = 0
KGU1 151015Z 29009KT 10/M09 A302 RMK A01 T01021087  RH  026%=      5-min Rain = 0
KGU1 151016Z 28008KT 10/M09 A302 RMK A01 T01021087  RH  026%=      5-min Rain = 0
KGU1 151017Z 28005KT 10/M09 A302 RMK A01 T01011086  RH  026%=      5-min Rain = 0
KGU1 151018Z 28006KT 10/M09 A302 RMK A01 T01001087  RH  026%=      5-min Rain = 0
KGU1 151019Z 28007G15KT 10/M09 A302 RMK A01 T01001087  RH  026%=      5-min Rain = 0
KGU1 151020Z 29013KT 10/M09 A302 RMK A01 T01011088  RH  026%=      5-min Rain = 0
KGU1 151021Z 29008KT 10/M09 A302 RMK A01 T01021087  RH  026%=      5-min Rain = 0
KGU1 151022Z 30008KT 10/M09 A302 RMK A01 T01031088  RH  025%=      5-min Rain = 0
KGU1 151023Z 30008KT 10/M09 A302 RMK A01 T01031088  RH  025%=      5-min Rain = 0
KGU1 151024Z 28012KT 10/M09 A302 RMK A01 T01031087  RH  026%=      5-min Rain = 0
KGU1 151025Z 31011KT 10/M09 A302 RMK A01 T01031087  RH  026%=      5-min Rain = 0
KGU1 151026Z 30007KT 10/M09 A302 RMK A01 T01031087  RH  026%=      5-min Rain = 0
KGU1 151027Z 30009KT 10/M09 A302 RMK A01 T01031087  RH  026%=      5-min Rain = 0
KGU1 151028Z 31010KT 10/M09 A302 RMK A01 T01021086  RH  026%=      5-min Rain = 0
KGU1 151029Z 30011KT 10/M09 A302 RMK A01 T01021086  RH  026%=      5-min Rain = 0
KGU1 151030Z 31013KT 10/M09 A302 RMK A01 T01021086  RH  026%=      5-min Rain = 0
KGU1 151031Z 31011KT 10/M09 A302 RMK A01 T01031087  RH  026%=      5-min Rain = 0
KGU1 151032Z 30009KT 10/M09 A302 RMK A01 T01031086  RH  026%=      5-min Rain = 0
KGU1 151033Z 30010KT 10/M09 A302 RMK A01 T01031087  RH  026%=      5-min Rain = 0
KGU1 151034Z 30011KT 10/M09 A302 RMK A01 T01031087  RH  026%=      5-min Rain = 0
KGU1 151035Z 30011G17KT 10/M09 A302 RMK A01 T01031086  RH  026%=      5-min Rain = 0
KGU1 151036Z 30015KT 10/M09 A3019 RMK A01 T01031086  RH  026%=      5-min Rain = 0
KGU1 151037Z 30012KT 10/M09 A3019 RMK A01 T01041087  RH  026%=      5-min Rain = 0
KGU1 151038Z 30011G16KT 10/M09 A3019 RMK A01 T01041086  RH  026%=      5-min Rain = 0
KGU1 151039Z 30011KT 10/M09 A3019 RMK A01 T01031086  RH  026%=      5-min Rain = 0
KGU1 151040Z 30010G16KT 10/M09 A3019 RMK A01 T01021085  RH  026%=      5-min Rain = 0
KGU1 151041Z 31006KT 10/M09 A3019 RMK A01 T01011086  RH  026%=      5-min Rain = 0
KGU1 151042Z 30007KT 10/M09 A3019 RMK A01 T01011086  RH  026%=      5-min Rain = 0
KGU1 151043Z 30012G17KT 10/M09 A3019 RMK A01 T01001086  RH  026%=      5-min Rain = 0
KGU1 151044Z 30010KT 10/M09 A3019 RMK A01 T01011086  RH  026%=      5-min Rain = 0
KGU1 151045Z 30009KT 10/M09 A3019 RMK A01 T01011086  RH  026%=      5-min Rain = 0
KGU1 151046Z 30011KT 10/M09 A3019 RMK A01 T01011087  RH  026%=      5-min Rain = 0
KGU1 151047Z 30008KT 10/M09 A3019 RMK A01 T01011086  RH  026%=      5-min Rain = 0
KGU1 151048Z 30009KT 10/M09 A3019 RMK A01 T01001086  RH  026%=      5-min Rain = 0
KGU1 151049Z 30009KT 10/M09 A3019 RMK A01 T01001086  RH  026%=      5-min Rain = 0
KGU1 151050Z 30008KT 10/M09 A3019 RMK A01 T00991086  RH  027%=      5-min Rain = 0
KGU1 151051Z 30008KT 10/M09 A3018 RMK A01 T00991086  RH  027%=      5-min Rain = 0
KGU1 151052Z 30008KT 10/M09 A3018 RMK A01 T00981086  RH  027%=      5-min Rain = 0
KGU1 151053Z 29010KT 10/M09 A3018 RMK A01 T00981086  RH  027%=      5-min Rain = 0
KGU1 151054Z 30010G15KT 10/M09 A3018 RMK A01 T00991086  RH  026%=      5-min Rain = 0
KGU1 151055Z 30007G12KT 10/M09 A3018 RMK A01 T01001086  RH  026%=      5-min Rain = 0
KGU1 151056Z 30009KT 10/M09 A3018 RMK A01 T01001086  RH  026%=      5-min Rain = 0
KGU1 151057Z 30006KT 10/M09 A3018 RMK A01 T01001086  RH  026%=      5-min Rain = 0
KGU1 151058Z 30007G12KT 10/M09 A3018 RMK A01 T00991086  RH  027%=      5-min Rain = 0
KGU1 151059Z 30012KT 10/M09 A3018 RMK A01 T01001086  RH  026%=      5-min Rain = 0
KGU1 151100Z 30013KT 10/M09 A3018 RMK A01 T01011086  RH  026%=      5-min Rain = 0
KGU1 151101Z 30008G13KT 10/M09 A3018 RMK A01 T01011086  RH  026%=      5-min Rain = 0
KGU1 151102Z 29009KT 10/M09 A3018 RMK A01 T01011085  RH  026%=      5-min Rain = 0
KGU1 151103Z 30010KT 10/M09 A3018 RMK A01 T01001085  RH  026%=      5-min Rain = 0
KGU1 151104Z 29009KT 10/M09 A3018 RMK A01 T01001085  RH  027%=      5-min Rain = 0
KGU1 151105Z 29013KT 10/M09 A3018 RMK A01 T00991085  RH  027%=      5-min Rain = 0
KGU1 151106Z 29012G18KT 10/M09 A3018 RMK A01 T01001086  RH  026%=      5-min Rain = 0
KGU1 151107Z 29011KT 10/M09 A3018 RMK A01 T01001085  RH  026%=      5-min Rain = 0
KGU1 151108Z 29012KT 10/M09 A3018 RMK A01 T01001086  RH  026%=      5-min Rain = 0
KGU1 151109Z 30012KT 10/M09 A3018 RMK A01 T01011085  RH  026%=      5-min Rain = 0
KGU1 151110Z 30010KT 10/M09 A3018 RMK A01 T01001085  RH  027%=      5-min Rain = 0
KGU1 151111Z 29010KT 10/M09 A3018 RMK A01 T00991085  RH  027%=      5-min Rain = 0
KGU1 151112Z 29011KT 10/M09 A3018 RMK A01 T01001086  RH  026%=      5-min Rain = 0
KGU1 151113Z 29012KT 10/M09 A3018 RMK A01 T01001085  RH  027%=      5-min Rain = 0
KGU1 151114Z 29013KT 10/M09 A3018 RMK A01 T01011085  RH  026%=      5-min Rain = 0
KGU1 151115Z 30011KT 10/M09 A3018 RMK A01 T01001085  RH  026%=      5-min Rain = 0
KGU1 151116Z 29012KT 10/M09 A3018 RMK A01 T01001085  RH  027%=      5-min Rain = 0
KGU1 151117Z 30011KT 10/M09 A3018 RMK A01 T01001085  RH  027%=      5-min Rain = 0
KGU1 151118Z 30010KT 10/M09 A3018 RMK A01 T00991085  RH  027%=      5-min Rain = 0
KGU1 151119Z 30008KT 10/M08 A3018 RMK A01 T00991084  RH  027%=      5-min Rain = 0
KGU1 151120Z 30011KT 10/M08 A3018 RMK A01 T00981084  RH  027%=      5-min Rain = 0
KGU1 151121Z 30010KT 10/M09 A3018 RMK A01 T00981085  RH  027%=      5-min Rain = 0
KGU1 151122Z 30010KT 10/M09 A3018 RMK A01 T00991085  RH  027%=      5-min Rain = 0
KGU1 151123Z 30011G18KT 10/M08 A3018 RMK A01 T00981084  RH  027%=      5-min Rain = 0
KGU1 151124Z 30009KT 10/M08 A3018 RMK A01 T00981084  RH  027%=      5-min Rain = 0
KGU1 151125Z 28010KT 10/M08 A3018 RMK A01 T00981084  RH  027%=      5-min Rain = 0
KGU1 151126Z 29011KT 10/M08 A3018 RMK A01 T00971084  RH  027%=      5-min Rain = 0
KGU1 151127Z 30010KT 10/M08 A3018 RMK A01 T00971084  RH  027%=      5-min Rain = 0
KGU1 151128Z 31011KT 10/M08 A3018 RMK A01 T00971084  RH  027%=      5-min Rain = 0
KGU1 151129Z 31012KT 10/M08 A3018 RMK A01 T00981084  RH  027%=      5-min Rain = 0
KGU1 151130Z 30012KT 10/M08 A3018 RMK A01 T00991084  RH  027%=      5-min Rain = 0
KGU1 151131Z 30010KT 10/M08 A3018 RMK A01 T00991084  RH  027%=      5-min Rain = 0
KGU1 151132Z 30011KT 10/M08 A3018 RMK A01 T00981083  RH  027%=      5-min Rain = 0
KGU1 151133Z 30013KT 10/M08 A3018 RMK A01 T00971084  RH  027%=      5-min Rain = 0
KGU1 151134Z 30012G17KT 10/M08 A3018 RMK A01 T00981084  RH  027%=      5-min Rain = 0
KGU1 151135Z 30012KT 10/M08 A3018 RMK A01 T00981084  RH  027%=      5-min Rain = 0
KGU1 151136Z 31014KT 10/M08 A3018 RMK A01 T00991084  RH  027%=      5-min Rain = 0
KGU1 151137Z 30014KT 10/M09 A3018 RMK A01 T01001085  RH  027%=      5-min Rain = 0
KGU1 151138Z 31013G19KT 10/M09 A3018 RMK A01 T01001085  RH  027%=      5-min Rain = 0
KGU1 151139Z 31018G24KT 10/M09 A3018 RMK A01 T01021085  RH  026%=      5-min Rain = 0
KGU1 151140Z 30017G22KT 10/M09 A3018 RMK A01 T01031085  RH  026%=      5-min Rain = 0
KGU1 151141Z 31017KT 10/M09 A3018 RMK A01 T01041085  RH  026%=      5-min Rain = 0
KGU1 151142Z 31016G21KT 10/M09 A3017 RMK A01 T01041085  RH  026%=      5-min Rain = 0
KGU1 151143Z 31017G23KT 10/M09 A3018 RMK A01 T01041086  RH  026%=      5-min Rain = 0
KGU1 151144Z 31019KT 11/M09 A3018 RMK A01 T01051086  RH  026%=      5-min Rain = 0
KGU1 151145Z 31015G20KT 11/M09 A3017 RMK A01 T01051086  RH  026%=      5-min Rain = 0
KGU1 151146Z 31015KT 10/M09 A3018 RMK A01 T01041086  RH  026%=      5-min Rain = 0
KGU1 151147Z 31017KT 10/M09 A3018 RMK A01 T01041086  RH  026%=      5-min Rain = 0
KGU1 151148Z 30018KT 11/M09 A3018 RMK A01 T01051086  RH  026%=      5-min Rain = 0
KGU1 151149Z 30015KT 11/M09 A3018 RMK A01 T01051085  RH  026%=      5-min Rain = 0
KGU1 151150Z 30014G19KT 10/M09 A3018 RMK A01 T01041085  RH  026%=      5-min Rain = 0
KGU1 151151Z 30017KT 10/M09 A3017 RMK A01 T01031085  RH  026%=      5-min Rain = 0
KGU1 151152Z 30016G21KT 10/M09 A3018 RMK A01 T01031085  RH  026%=      5-min Rain = 0
KGU1 151153Z 30020KT 10/M09 A3018 RMK A01 T01031085  RH  026%=      5-min Rain = 0
KGU1 151154Z 30018G23KT 10/M09 A3018 RMK A01 T01041085  RH  026%=      5-min Rain = 0
KGU1 151155Z 31015G22KT 10/M09 A3017 RMK A01 T01031085  RH  026%=      5-min Rain = 0
KGU1 151156Z 31016KT 10/M09 A3018 RMK A01 T01031085  RH  026%=      5-min Rain = 0
KGU1 151157Z 31018KT 10/M09 A3018 RMK A01 T01041085  RH  026%=      5-min Rain = 0
KGU1 151158Z 30015G22KT 10/M08 A3017 RMK A01 T01041084  RH  026%=      5-min Rain = 0
KGU1 151159Z 31016KT 10/M09 A3017 RMK A01 T01031085  RH  026%=      5-min Rain = 0
KGU1 151200Z 31019KT 10/M09 A3017 RMK A01 T01041085  RH  026%=      5-min Rain = 0
KGU1 151201Z 30019KT 11/M09 A3017 RMK A01 T01051085  RH  026%=      5-min Rain = 0
KGU1 151202Z 30016KT 11/M09 A3017 RMK A01 T01051085  RH  026%=      5-min Rain = 0
KGU1 151203Z 31019KT 10/M09 A3017 RMK A01 T01041085  RH  026%=      5-min Rain = 0
KGU1 151204Z 31019KT 11/M09 A3017 RMK A01 T01051085  RH  026%=      5-min Rain = 0
KGU1 151205Z 31020KT 11/M09 A3017 RMK A01 T01051085  RH  026%=      5-min Rain = 0
KGU1 151206Z 31019G24KT 11/M09 A3017 RMK A01 T01051085  RH  026%=      5-min Rain = 0
KGU1 151207Z 31020G25KT 11/M09 A3017 RMK A01 T01061085  RH  026%=      5-min Rain = 0
KGU1 151208Z 31021KT 11/M09 A3017 RMK A01 T01061085  RH  026%=      5-min Rain = 0
KGU1 151209Z 30023G28KT 11/M09 A3017 RMK A01 T01071085  RH  025%=      5-min Rain = 0
KGU1 151210Z 31021KT 11/M09 A3017 RMK A01 T01071085  RH  025%=      5-min Rain = 0
KGU1 151211Z 31018G25KT 11/M09 A3017 RMK A01 T01071085  RH  025%=      5-min Rain = 0
KGU1 151212Z 30023KT 11/M09 A3017 RMK A01 T01071085  RH  025%=      5-min Rain = 0
KGU1 151213Z 31022KT 11/M09 A3017 RMK A01 T01071086  RH  025%=      5-min Rain = 0
KGU1 151214Z 30021KT 11/M09 A3017 RMK A01 T01071085  RH  025%=      5-min Rain = 0
KGU1 151215Z 30020G26KT 11/M09 A3017 RMK A01 T01061085  RH  025%=      5-min Rain = 0
KGU1 151216Z 31019KT 11/M09 A3017 RMK A01 T01061085  RH  025%=      5-min Rain = 0
KGU1 151217Z 30020KT 11/M09 A3017 RMK A01 T01061085  RH  025%=      5-min Rain = 0
KGU1 151218Z 31019KT 11/M09 A3017 RMK A01 T01061085  RH  026%=      5-min Rain = 0
KGU1 151219Z 30021KT 11/M09 A3017 RMK A01 T01051085  RH  026%=      5-min Rain = 0
KGU1 151220Z 31019KT 11/M09 A3017 RMK A01 T01061085  RH  025%=      5-min Rain = 0
KGU1 151221Z 31017KT 11/M09 A3017 RMK A01 T01061085  RH  025%=      5-min Rain = 0
KGU1 151222Z 30019KT 11/M09 A3017 RMK A01 T01061085  RH  026%=      5-min Rain = 0
KGU1 151223Z 30017KT 11/M09 A3017 RMK A01 T01051085  RH  026%=      5-min Rain = 0
KGU1 151224Z 30017KT 11/M09 A3017 RMK A01 T01051085  RH  026%=      5-min Rain = 0
KGU1 151225Z 30017KT 11/M09 A3017 RMK A01 T01051086  RH  025%=      5-min Rain = 0
KGU1 151226Z 31021KT 11/M09 A3017 RMK A01 T01061086  RH  025%=      5-min Rain = 0
KGU1 151227Z 30017KT 11/M09 A3017 RMK A01 T01071086  RH  025%=      5-min Rain = 0
KGU1 151228Z 31017KT 11/M09 A3017 RMK A01 T01061086  RH  025%=      5-min Rain = 0
KGU1 151229Z 31021KT 11/M09 A3017 RMK A01 T01061086  RH  025%=      5-min Rain = 0
KGU1 151230Z 31020KT 11/M09 A3017 RMK A01 T01071087  RH  025%=      5-min Rain = 0
KGU1 151231Z 30019KT 11/M09 A3017 RMK A01 T01081086  RH  025%=      5-min Rain = 0
KGU1 151232Z 30018KT 11/M09 A3017 RMK A01 T01071086  RH  025%=      5-min Rain = 0
KGU1 151233Z 31019G24KT 11/M09 A3017 RMK A01 T01071086  RH  025%=      5-min Rain = 0
KGU1 151234Z 30018KT 11/M09 A3017 RMK A01 T01071086  RH  025%=      5-min Rain = 0
KGU1 151235Z 31017G24KT 11/M09 A3017 RMK A01 T01071086  RH  025%=      5-min Rain = 0
KGU1 151236Z 31017KT 11/M09 A3017 RMK A01 T01071086  RH  025%=      5-min Rain = 0
KGU1 151237Z 31017G24KT 11/M09 A3017 RMK A01 T01071086  RH  025%=      5-min Rain = 0
KGU1 151238Z 31019G25KT 11/M09 A3017 RMK A01 T01071086  RH  025%=      5-min Rain = 0
KGU1 151239Z 31017KT 11/M09 A3017 RMK A01 T01071086  RH  025%=      5-min Rain = 0
KGU1 151240Z 30018KT 11/M09 A3017 RMK A01 T01071086  RH  025%=      5-min Rain = 0
KGU1 151241Z 30017G22KT 11/M09 A3017 RMK A01 T01071086  RH  025%=      5-min Rain = 0
KGU1 151242Z 31018G23KT 11/M09 A3017 RMK A01 T01071086  RH  025%=      5-min Rain = 0
KGU1 151243Z 30013KT 11/M09 A3017 RMK A01 T01071086  RH  025%=      5-min Rain = 0
KGU1 151244Z 31018G23KT 11/M09 A3018 RMK A01 T01061086  RH  025%=      5-min Rain = 0
KGU1 151245Z 31019KT 11/M09 A3018 RMK A01 T01081086  RH  025%=      5-min Rain = 0
KGU1 151246Z 31016G21KT 11/M09 A3018 RMK A01 T01091086  RH  025%=      5-min Rain = 0
KGU1 151247Z 31018KT 11/M09 A3018 RMK A01 T01091086  RH  025%=      5-min Rain = 0
KGU1 151248Z 30017KT 11/M09 A3018 RMK A01 T01091086  RH  025%=      5-min Rain = 0
KGU1 151249Z 31015KT 11/M09 A3018 RMK A01 T01091086  RH  025%=      5-min Rain = 0
KGU1 151250Z 30015KT 11/M09 A3017 RMK A01 T01081086  RH  025%=      5-min Rain = 0
KGU1 151251Z 30016KT 11/M09 A3017 RMK A01 T01081086  RH  025%=      5-min Rain = 0
KGU1 151252Z 30014KT 11/M09 A3017 RMK A01 T01071085  RH  025%=      5-min Rain = 0
KGU1 151253Z 29013KT 11/M09 A3017 RMK A01 T01061085  RH  026%=      5-min Rain = 0
KGU1 151254Z 30013KT 10/M09 A3017 RMK A01 T01041085  RH  026%=      5-min Rain = 0
KGU1 151255Z 30017KT 10/M09 A3017 RMK A01 T01041085  RH  026%=      5-min Rain = 0
KGU1 151256Z 31017G23KT 11/M09 A3018 RMK A01 T01051085  RH  026%=      5-min Rain = 0
KGU1 151257Z 31017KT 11/M09 A3017 RMK A01 T01061086  RH  025%=      5-min Rain = 0
KGU1 151258Z 31015KT 11/M09 A3017 RMK A01 T01071086  RH  025%=      5-min Rain = 0
KGU1 151259Z 31015KT 11/M09 A3017 RMK A01 T01071085  RH  025%=      5-min Rain = 0
KGU1 151300Z 31018KT 11/M09 A3017 RMK A01 T01071085  RH  025%=      5-min Rain = 0
KGU1 151301Z 31016KT 11/M09 A3017 RMK A01 T01081085  RH  025%=      5-min Rain = 0
KGU1 151302Z 31014G19KT 11/M09 A3018 RMK A01 T01081085  RH  025%=      5-min Rain = 0
KGU1 151303Z 31017KT 11/M09 A3018 RMK A01 T01071085  RH  025%=      5-min Rain = 0
KGU1 151304Z 31018KT 11/M09 A3018 RMK A01 T01081085  RH  025%=      5-min Rain = 0
KGU1 151305Z 31017KT 11/M09 A3018 RMK A01 T01091086  RH  025%=      5-min Rain = 0
KGU1 151306Z 30016KT 11/M09 A3018 RMK A01 T01091085  RH  025%=      5-min Rain = 0
KGU1 151307Z 31018KT 11/M09 A3018 RMK A01 T01081085  RH  025%=      5-min Rain = 0
KGU1 151308Z 31016KT 11/M09 A3018 RMK A01 T01081085  RH  025%=      5-min Rain = 0
KGU1 151309Z 31016KT 11/M09 A3018 RMK A01 T01081085  RH  025%=      5-min Rain = 0
KGU1 151310Z 31015KT 11/M09 A3018 RMK A01 T01081085  RH  025%=      5-min Rain = 0
KGU1 151311Z 31018KT 11/M09 A3018 RMK A01 T01081085  RH  025%=      5-min Rain = 0
KGU1 151312Z 31019KT 11/M09 A3018 RMK A01 T01101086  RH  025%=      5-min Rain = 0
KGU1 151313Z 31015KT 11/M09 A3018 RMK A01 T01101086  RH  025%=      5-min Rain = 0
KGU1 151314Z 30014KT 11/M09 A3018 RMK A01 T01091085  RH  025%=      5-min Rain = 0
KGU1 151315Z 31015KT 11/M09 A3018 RMK A01 T01081085  RH  025%=      5-min Rain = 0
KGU1 151316Z 32015KT 11/M09 A3018 RMK A01 T01081085  RH  025%=      5-min Rain = 0
KGU1 151317Z 31017G23KT 11/M09 A3018 RMK A01 T01091085  RH  025%=      5-min Rain = 0
KGU1 151318Z 31014KT 11/M09 A3018 RMK A01 T01091085  RH  025%=      5-min Rain = 0
KGU1 151319Z 31015KT 11/M09 A3018 RMK A01 T01091085  RH  025%=      5-min Rain = 0
KGU1 151320Z 31015G20KT 11/M09 A3018 RMK A01 T01101086  RH  025%=      5-min Rain = 0
KGU1 151321Z 31014KT 11/M09 A3018 RMK A01 T01091085  RH  025%=      5-min Rain = 0
KGU1 151322Z 31013KT 11/M09 A3018 RMK A01 T01091085  RH  025%=      5-min Rain = 0
KGU1 151323Z 31014KT 11/M09 A3018 RMK A01 T01081085  RH  025%=      5-min Rain = 0
KGU1 151324Z 31016G21KT 11/M09 A3018 RMK A01 T01091085  RH  025%=      5-min Rain = 0
KGU1 151325Z 31017KT 11/M09 A3018 RMK A01 T01091085  RH  025%=      5-min Rain = 0
KGU1 151326Z 31015G20KT 11/M09 A3018 RMK A01 T01091085  RH  025%=      5-min Rain = 0
KGU1 151327Z 31015KT 11/M09 A3018 RMK A01 T01091085  RH  025%=      5-min Rain = 0
KGU1 151328Z 30014KT 11/M09 A3018 RMK A01 T01081085  RH  025%=      5-min Rain = 0
KGU1 151329Z 30013KT 11/M09 A3018 RMK A01 T01071085  RH  025%=      5-min Rain = 0
KGU1 151330Z 30014KT 11/M09 A3018 RMK A01 T01071085  RH  025%=      5-min Rain = 0
KGU1 151331Z 30011KT 11/M08 A3018 RMK A01 T01061084  RH  026%=      5-min Rain = 0
KGU1 151332Z 30011KT 11/M08 A3018 RMK A01 T01051084  RH  026%=      5-min Rain = 0
KGU1 151333Z 30012KT 11/M09 A3018 RMK A01 T01051085  RH  026%=      5-min Rain = 0
KGU1 151334Z 30013KT 11/M09 A3018 RMK A01 T01061085  RH  026%=      5-min Rain = 0
KGU1 151335Z 31016KT 11/M09 A3018 RMK A01 T01061085  RH  025%=      5-min Rain = 0
KGU1 151336Z 31017KT 11/M09 A3018 RMK A01 T01071085  RH  025%=      5-min Rain = 0
KGU1 151337Z 31016KT 11/M09 A3018 RMK A01 T01081085  RH  025%=      5-min Rain = 0
KGU1 151338Z 30016KT 11/M09 A3018 RMK A01 T01081085  RH  025%=      5-min Rain = 0
KGU1 151339Z 31016KT 11/M09 A3018 RMK A01 T01081085  RH  025%=      5-min Rain = 0
KGU1 151340Z 31015KT 11/M09 A3018 RMK A01 T01081085  RH  025%=      5-min Rain = 0
KGU1 151341Z 30014KT 11/M09 A3018 RMK A01 T01081085  RH  025%=      5-min Rain = 0
KGU1 151342Z 30011KT 11/M08 A3018 RMK A01 T01071084  RH  026%=      5-min Rain = 0
KGU1 151343Z 30012KT 11/M08 A3018 RMK A01 T01061084  RH  026%=      5-min Rain = 0
KGU1 151344Z 30012KT 11/M08 A3018 RMK A01 T01051083  RH  026%=      5-min Rain = 0
KGU1 151345Z 29014KT 10/M08 A3018 RMK A01 T01041083  RH  026%=      5-min Rain = 0
KGU1 151346Z 30012KT 10/M08 A3018 RMK A01 T01031083  RH  026%=      5-min Rain = 0
KGU1 151347Z 30012KT 10/M08 A3018 RMK A01 T01021083  RH  027%=      5-min Rain = 0
KGU1 151348Z 31013KT 10/M08 A3018 RMK A01 T01021084  RH  026%=      5-min Rain = 0
KGU1 151349Z 30012G18KT 10/M08 A3018 RMK A01 T01041084  RH  026%=      5-min Rain = 0
KGU1 151350Z 30012G17KT 10/M08 A3018 RMK A01 T01031083  RH  026%=      5-min Rain = 0
KGU1 151351Z 30012KT 10/M08 A3018 RMK A01 T01031084  RH  026%=      5-min Rain = 0
KGU1 151352Z 31013KT 10/M08 A3018 RMK A01 T01031084  RH  026%=      5-min Rain = 0
KGU1 151353Z 30013KT 10/M08 A3018 RMK A01 T01041084  RH  026%=      5-min Rain = 0
KGU1 151354Z 31013G18KT 10/M08 A3018 RMK A01 T01041084  RH  026%=      5-min Rain = 0
KGU1 151355Z 31016KT 11/M08 A3018 RMK A01 T01061084  RH  026%=      5-min Rain = 0
KGU1 151356Z 30013KT 11/M08 A3018 RMK A01 T01061084  RH  026%=      5-min Rain = 0
KGU1 151357Z 30011KT 11/M08 A3018 RMK A01 T01061083  RH  026%=      5-min Rain = 0
KGU1 151358Z 30013KT 11/M08 A3018 RMK A01 T01051083  RH  026%=      5-min Rain = 0
KGU1 151359Z 31014KT 11/M08 A3018 RMK A01 T01061084  RH  026%=      5-min Rain = 0
KGU1 151400Z 30014KT 11/M08 A3018 RMK A01 T01071084  RH  026%=      5-min Rain = 0
KGU1 151401Z 31013KT 11/M08 A3018 RMK A01 T01071083  RH  026%=      5-min Rain = 0
KGU1 151402Z 31016KT 11/M08 A3018 RMK A01 T01071083  RH  026%=      5-min Rain = 0
KGU1 151403Z 31018KT 11/M08 A3018 RMK A01 T01091084  RH  025%=      5-min Rain = 0
KGU1 151404Z 31015KT 11/M08 A3018 RMK A01 T01101084  RH  025%=      5-min Rain = 0
KGU1 151405Z 31012KT 11/M08 A3018 RMK A01 T01091082  RH  026%=      5-min Rain = 0
KGU1 151406Z 31011KT 11/M08 A3018 RMK A01 T01081082  RH  026%=      5-min Rain = 0
KGU1 151407Z 31015G20KT 11/M08 A3018 RMK A01 T01081083  RH  026%=      5-min Rain = 0
KGU1 151408Z 31014KT 11/M08 A3018 RMK A01 T01091082  RH  026%=      5-min Rain = 0
KGU1 151409Z 31011KT 11/M08 A3018 RMK A01 T01091083  RH  026%=      5-min Rain = 0
KGU1 151410Z 31012KT 11/M08 A3018 RMK A01 T01091082  RH  026%=      5-min Rain = 0
KGU1 151411Z 31014KT 11/M08 A3018 RMK A01 T01091082  RH  026%=      5-min Rain = 0
KGU1 151412Z 31015KT 11/M08 A3018 RMK A01 T01101082  RH  025%=      5-min Rain = 0
KGU1 151413Z 31014KT 11/M08 A3018 RMK A01 T01101082  RH  025%=      5-min Rain = 0
KGU1 151414Z 31012KT 11/M08 A3018 RMK A01 T01101081  RH  026%=      5-min Rain = 0
KGU1 151415Z 32015G24KT 11/M08 A3018 RMK A01 T01101082  RH  025%=      5-min Rain = 0
KGU1 151416Z 31015G20KT 11/M08 A3018 RMK A01 T01111083  RH  025%=      5-min Rain = 0
KGU1 151417Z 31015KT 11/M08 A3018 RMK A01 T01121082  RH  025%=      5-min Rain = 0
KGU1 151418Z 31018G23KT 11/M08 A3018 RMK A01 T01121082  RH  025%=      5-min Rain = 0
KGU1 151419Z 31015G20KT 11/M08 A3018 RMK A01 T01121082  RH  025%=      5-min Rain = 0
KGU1 151420Z 31015KT 11/M08 A3018 RMK A01 T01121082  RH  025%=      5-min Rain = 0
KGU1 151421Z 31016G21KT 11/M08 A3018 RMK A01 T01121081  RH  025%=      5-min Rain = 0
KGU1 151422Z 32017KT 11/M08 A3018 RMK A01 T01121082  RH  025%=      5-min Rain = 0
KGU1 151423Z 32016G21KT 11/M08 A3018 RMK A01 T01121082  RH  025%=      5-min Rain = 0
KGU1 151424Z 31013G18KT 11/M08 A3018 RMK A01 T01121082  RH  025%=      5-min Rain = 0
KGU1 151425Z 32016KT 11/M08 A3018 RMK A01 T01121082  RH  025%=      5-min Rain = 0
KGU1 151426Z 31017KT 11/M08 A3018 RMK A01 T01121082  RH  025%=      5-min Rain = 0
KGU1 151427Z 32013KT 11/M08 A3018 RMK A01 T01111081  RH  025%=      5-min Rain = 0
KGU1 151428Z 31016KT 11/M08 A3018 RMK A01 T01101081  RH  026%=      5-min Rain = 0
KGU1 151429Z 31019KT 11/M08 A3018 RMK A01 T01111082  RH  025%=      5-min Rain = 0
KGU1 151430Z 31015KT 11/M08 A3018 RMK A01 T01111082  RH  025%=      5-min Rain = 0
KGU1 151431Z 31016KT 11/M08 A3018 RMK A01 T01111082  RH  025%=      5-min Rain = 0
KGU1 151432Z 31017KT 11/M08 A3018 RMK A01 T01101082  RH  025%=      5-min Rain = 0
KGU1 151433Z 30017KT 11/M08 A3018 RMK A01 T01101082  RH  026%=      5-min Rain = 0
KGU1 151434Z 31017KT 11/M08 A3018 RMK A01 T01101082  RH  025%=      5-min Rain = 0
KGU1 151435Z 31014KT 11/M08 A3018 RMK A01 T01091082  RH  026%=      5-min Rain = 0
KGU1 151436Z 31015KT 11/M08 A3018 RMK A01 T01081081  RH  026%=      5-min Rain = 0
KGU1 151437Z 31015KT 11/M08 A3018 RMK A01 T01081081  RH  026%=      5-min Rain = 0
KGU1 151438Z 31014KT 11/M08 A3018 RMK A01 T01081081  RH  026%=      5-min Rain = 0
KGU1 151439Z 31015G20KT 11/M08 A3018 RMK A01 T01081082  RH  026%=      5-min Rain = 0
KGU1 151440Z 31015G20KT 11/M08 A3018 RMK A01 T01091081  RH  026%=      5-min Rain = 0
KGU1 151441Z 31015G20KT 11/M08 A3018 RMK A01 T01091082  RH  026%=      5-min Rain = 0
KGU1 151442Z 30016G21KT 11/M08 A3018 RMK A01 T01091081  RH  026%=      5-min Rain = 0
KGU1 151443Z 31015KT 11/M08 A3018 RMK A01 T01091080  RH  026%=      5-min Rain = 0
KGU1 151444Z 31017KT 11/M08 A3018 RMK A01 T01091081  RH  026%=      5-min Rain = 0
KGU1 151445Z 30016G21KT 11/M08 A3018 RMK A01 T01091081  RH  026%=      5-min Rain = 0
KGU1 151446Z 31019KT 11/M08 A3018 RMK A01 T01091082  RH  026%=      5-min Rain = 0
KGU1 151447Z 31017KT 11/M08 A3018 RMK A01 T01101083  RH  025%=      5-min Rain = 0
KGU1 151448Z 30014KT 11/M08 A3018 RMK A01 T01101082  RH  026%=      5-min Rain = 0
KGU1 151449Z 31013KT 11/M08 A3018 RMK A01 T01091081  RH  026%=      5-min Rain = 0
KGU1 151450Z 31015G21KT 11/M08 A3018 RMK A01 T01101082  RH  025%=      5-min Rain = 0
KGU1 151451Z 31018KT 11/M08 A3018 RMK A01 T01101082  RH  025%=      5-min Rain = 0
KGU1 151452Z 30015KT 11/M08 A3018 RMK A01 T01101082  RH  025%=      5-min Rain = 0
KGU1 151453Z 31018G23KT 11/M08 A3018 RMK A01 T01111083  RH  025%=      5-min Rain = 0
KGU1 151454Z 32015KT 11/M08 A3018 RMK A01 T01111084  RH  025%=      5-min Rain = 0
KGU1 151455Z 30016KT 11/M08 A3018 RMK A01 T01111083  RH  025%=      5-min Rain = 0
KGU1 151456Z 30015KT 11/M08 A3018 RMK A01 T01111084  RH  025%=      5-min Rain = 0
KGU1 151457Z 31016G24KT 11/M08 A3018 RMK A01 T01111084  RH  025%=      5-min Rain = 0
KGU1 151458Z 31017KT 11/M08 A3018 RMK A01 T01111083  RH  025%=      5-min Rain = 0
KGU1 151459Z 31013KT 11/M08 A3018 RMK A01 T01111084  RH  025%=      5-min Rain = 0
KGU1 151500Z 31016G21KT 11/M09 A3018 RMK A01 T01111085  RH  025%=      5-min Rain = 0
KGU1 151501Z 31017G22KT 11/M08 A3018 RMK A01 T01121084  RH  025%=      5-min Rain = 0
KGU1 151502Z 31020G25KT 11/M08 A3018 RMK A01 T01131084  RH  025%=      5-min Rain = 0
KGU1 151503Z 31019KT 11/M08 A3018 RMK A01 T01131083  RH  025%=      5-min Rain = 0
KGU1 151504Z 31016G22KT 11/M08 A3018 RMK A01 T01141082  RH  025%=      5-min Rain = 0
KGU1 151505Z 32017KT 11/M08 A3018 RMK A01 T01141084  RH  024%=      5-min Rain = 0
KGU1 151506Z 31016G25KT 12/M08 A3018 RMK A01 T01151082  RH  025%=      5-min Rain = 0
KGU1 151507Z 31020KT 12/M08 A3018 RMK A01 T01151084  RH  024%=      5-min Rain = 0
KGU1 151508Z 31019KT 12/M08 A3018 RMK A01 T01161083  RH  024%=      5-min Rain = 0
KGU1 151509Z 31015KT 12/M08 A3018 RMK A01 T01161082  RH  024%=      5-min Rain = 0
KGU1 151510Z 31018G23KT 12/M08 A3018 RMK A01 T01161083  RH  024%=      5-min Rain = 0
KGU1 151511Z 32020G25KT 12/M08 A3018 RMK A01 T01171082  RH  024%=      5-min Rain = 0
KGU1 151512Z 32016KT 12/M08 A3018 RMK A01 T01171082  RH  024%=      5-min Rain = 0
KGU1 151513Z 31018KT 12/M08 A3018 RMK A01 T01181082  RH  024%=      5-min Rain = 0
KGU1 151514Z 31014G20KT 12/M08 A3018 RMK A01 T01181080  RH  025%=      5-min Rain = 0
KGU1 151515Z 31012KT 12/M08 A3018 RMK A01 T01181078  RH  025%=      5-min Rain = 0
KGU1 151516Z 30015G20KT 12/M08 A3018 RMK A01 T01191078  RH  025%=      5-min Rain = 0
KGU1 151517Z 30015KT 12/M08 A3018 RMK A01 T01191078  RH  025%=      5-min Rain = 0
KGU1 151518Z 31016KT 12/M08 A3018 RMK A01 T01191080  RH  024%=      5-min Rain = 0
KGU1 151519Z 31018KT 12/M08 A3019 RMK A01 T01191081  RH  024%=      5-min Rain = 0
KGU1 151520Z 30014G19KT 12/M08 A3019 RMK A01 T01201079  RH  024%=      5-min Rain = 0
KGU1 151521Z 31015KT 12/M08 A3019 RMK A01 T01201080  RH  024%=      5-min Rain = 0
KGU1 151522Z 30017KT 12/M08 A3019 RMK A01 T01211083  RH  024%=      5-min Rain = 0
KGU1 151523Z 30017KT 12/M08 A3019 RMK A01 T01211081  RH  024%=      5-min Rain = 0
KGU1 151524Z 29018KT 12/M08 A3018 RMK A01 T01211082  RH  024%=      5-min Rain = 0
KGU1 151525Z 29016KT 12/M08 A3018 RMK A01 T01211083  RH  024%=      5-min Rain = 0
KGU1 151526Z 30017KT 12/M08 A3019 RMK A01 T01221083  RH  023%=      5-min Rain = 0
KGU1 151527Z 30016KT 12/M08 A3018 RMK A01 T01221084  RH  023%=      5-min Rain = 0
KGU1 151528Z 29015KT 12/M08 A3019 RMK A01 T01231082  RH  023%=      5-min Rain = 0
KGU1 151529Z 29013G19KT 12/M08 A3019 RMK A01 T01231080  RH  024%=      5-min Rain = 0
KGU1 151530Z 28016KT 12/M08 A3018 RMK A01 T01241082  RH  023%=      5-min Rain = 0
KGU1 151531Z 29016KT 12/M08 A3019 RMK A01 T01241083  RH  023%=      5-min Rain = 0
KGU1 151532Z 29017KT 12/M08 A3019 RMK A01 T01241083  RH  023%=      5-min Rain = 0
KGU1 151533Z 30016KT 12/M09 A3019 RMK A01 T01241085  RH  023%=      5-min Rain = 0
KGU1 151534Z 30014KT 12/M08 A3019 RMK A01 T01241083  RH  023%=      5-min Rain = 0
KGU1 151535Z 29013KT 13/M08 A3019 RMK A01 T01251082  RH  023%=      5-min Rain = 0
KGU1 151536Z 30011KT 13/M08 A3019 RMK A01 T01261080  RH  023%=      5-min Rain = 0
KGU1 151537Z 30010KT 13/M08 A3019 RMK A01 T01281080  RH  023%=      5-min Rain = 0
KGU1 151538Z 29014KT 13/M08 A3019 RMK A01 T01291084  RH  022%=      5-min Rain = 0
KGU1 151539Z 29012KT 13/M09 A3019 RMK A01 T01291087  RH  022%=      5-min Rain = 0
KGU1 151540Z 28014KT 13/M09 A3019 RMK A01 T01301087  RH  022%=      5-min Rain = 0
KGU1 151541Z 29015KT 13/M09 A3019 RMK A01 T01301087  RH  021%=      5-min Rain = 0
KGU1 151542Z 29013KT 13/M09 A3019 RMK A01 T01301089  RH  021%=      5-min Rain = 0
KGU1 151543Z 28009KT 13/M09 A3019 RMK A01 T01311088  RH  021%=      5-min Rain = 0
KGU1 151544Z 29012KT 13/M09 A3019 RMK A01 T01321089  RH  021%=      5-min Rain = 0
KGU1 151545Z 30010KT 13/M09 A3019 RMK A01 T01331091  RH  020%=      5-min Rain = 0
KGU1 151546Z 30010KT 13/M09 A302 RMK A01 T01341089  RH  021%=      5-min Rain = 0
KGU1 151547Z 30011KT 13/M09 A302 RMK A01 T01331093  RH  020%=      5-min Rain = 0
KGU1 151548Z 28012KT 13/M09 A3019 RMK A01 T01341089  RH  021%=      5-min Rain = 0
KGU1 151549Z 29014KT 14/M09 A302 RMK A01 T01361091  RH  020%=      5-min Rain = 0
KGU1 151550Z 30012G17KT 14/M10 A302 RMK A01 T01351095  RH  020%=      5-min Rain = 0
KGU1 151551Z 30010KT 14/M09 A302 RMK A01 T01351094  RH  020%=      5-min Rain = 0
KGU1 151552Z 29013G18KT 14/M09 A302 RMK A01 T01361093  RH  020%=      5-min Rain = 0
KGU1 151553Z 28016KT 14/M10 A302 RMK A01 T01371098  RH  019%=      5-min Rain = 0
KGU1 151554Z 30012KT 14/M10 A302 RMK A01 T01371095  RH  019%=      5-min Rain = 0
KGU1 151555Z 31008KT 14/M10 A302 RMK A01 T01381095  RH  019%=      5-min Rain = 0
KGU1 151556Z 29005KT 14/M09 A302 RMK A01 T01381092  RH  020%=      5-min Rain = 0
KGU1 151557Z 30010G16KT 14/M10 A302 RMK A01 T01401097  RH  019%=      5-min Rain = 0
KGU1 151558Z 29010KT 14/M10 A302 RMK A01 T01401102  RH  018%=      5-min Rain = 0
KGU1 151559Z 28012KT 14/M10 A302 RMK A01 T01411101  RH  018%=      5-min Rain = 0
KGU1 151600Z 27010KT 14/M10 A302 RMK A01 T01411104  RH  018%=      5-min Rain = 0
KGU1 151601Z 24006KT 14/M10 A302 RMK A01 T01421102  RH  018%=      5-min Rain = 0
KGU1 151602Z 22007KT 14/M10 A302 RMK A01 T01441098  RH  018%=      5-min Rain = 0
KGU1 151603Z 23009KT 14/M11 A302 RMK A01 T01431107  RH  017%=      5-min Rain = 0
KGU1 151604Z 23006KT 14/M10 A302 RMK A01 T01421100  RH  018%=      5-min Rain = 0
KGU1 151605Z 22006KT 14/M10 A302 RMK A01 T01411095  RH  019%=      5-min Rain = 0
KGU1 151606Z 21011KT 14/M08 A302 RMK A01 T01361081  RH  022%=      5-min Rain = 0
KGU1 151607Z 21012KT 13/M08 A302 RMK A01 T01281077  RH  023%=      5-min Rain = 0
KGU1 151608Z 21008KT 12/M08 A302 RMK A01 T01221076  RH  025%=      5-min Rain = 0
KGU1 151609Z 20014KT 12/M08 A302 RMK A01 T01181077  RH  025%=      5-min Rain = 0
KGU1 151610Z 19013KT 11/M08 A302 RMK A01 T01131081  RH  025%=      5-min Rain = 0
KGU1 151611Z 18017KT 11/M08 A3019 RMK A01 T01101084  RH  025%=      5-min Rain = 0
KGU1 151612Z 19014KT 11/M08 A302 RMK A01 T01091081  RH  026%=      5-min Rain = 0
KGU1 151613Z 21009KT 11/M09 A302 RMK A01 T01091085  RH  025%=      5-min Rain = 0
KGU1 151614Z 20015KT 11/M08 A302 RMK A01 T01101081  RH  026%=      5-min Rain = 0
KGU1 151615Z 20014KT 11/M08 A302 RMK A01 T01081081  RH  026%=      5-min Rain = 0
KGU1 151616Z 21015KT 11/M08 A302 RMK A01 T01061079  RH  027%=      5-min Rain = 0
KGU1 151617Z 21015G20KT 10/M08 A302 RMK A01 T01041082  RH  027%=      5-min Rain = 0
KGU1 151618Z 22016KT 10/M08 A302 RMK A01 T01031081  RH  027%=      5-min Rain = 0
KGU1 151619Z 21016KT 10/M08 A302 RMK A01 T01021082  RH  027%=      5-min Rain = 0
KGU1 151620Z 21012KT 10/M08 A302 RMK A01 T01001080  RH  028%=      5-min Rain = 0
KGU1 151621Z 21015G20KT 10/M08 A302 RMK A01 T00991081  RH  028%=      5-min Rain = 0
KGU1 151622Z 21012KT 10/M08 A302 RMK A01 T00991080  RH  028%=      5-min Rain = 0
KGU1 151623Z 21013KT 10/M08 A302 RMK A01 T00991080  RH  028%=      5-min Rain = 0
KGU1 151624Z 22013KT 10/M08 A302 RMK A01 T01001082  RH  027%=      5-min Rain = 0
KGU1 151625Z 21014KT 10/M08 A302 RMK A01 T01001081  RH  027%=      5-min Rain = 0
KGU1 151626Z 21012KT 10/M08 A302 RMK A01 T00991081  RH  028%=      5-min Rain = 0
KGU1 151627Z 23009KT 10/M08 A3021 RMK A01 T00991079  RH  028%=      5-min Rain = 0
KGU1 151628Z 23009KT 10/M08 A3021 RMK A01 T00971079  RH  028%=      5-min Rain = 0
KGU1 151629Z 22013KT 10/M08 A3021 RMK A01 T00961079  RH  029%=      5-min Rain = 0
KGU1 151630Z 22015KT 10/M08 A3021 RMK A01 T00961082  RH  028%=      5-min Rain = 0
KGU1 151631Z 22012KT 10/M08 A3021 RMK A01 T00951081  RH  028%=      5-min Rain = 0
KGU1 151632Z 23011KT 09/M08 A3021 RMK A01 T00941081  RH  028%=      5-min Rain = 0
KGU1 151633Z 23008KT 09/M08 A3021 RMK A01 T00931081  RH  029%=      5-min Rain = 0
KGU1 151634Z 24006KT 09/M08 A3021 RMK A01 T00941082  RH  028%=      5-min Rain = 0
KGU1 151635Z 25009KT 10/M08 A3021 RMK A01 T00961084  RH  027%=      5-min Rain = 0
KGU1 151636Z 21012G17KT 10/M08 A302 RMK A01 T00971082  RH  028%=      5-min Rain = 0
KGU1 151637Z 25009G14KT 10/M08 A3021 RMK A01 T00971082  RH  028%=      5-min Rain = 0
KGU1 151638Z 26009KT 10/M09 A3021 RMK A01 T00981089  RH  026%=      5-min Rain = 0
KGU1 151639Z 24007KT 10/M09 A3021 RMK A01 T01001093  RH  025%=      5-min Rain = 0
KGU1 151640Z 25006KT 11/M10 A3021 RMK A01 T01051104  RH  022%=      5-min Rain = 0
KGU1 151641Z 24007KT 11/M09 A3021 RMK A01 T01091091  RH  024%=      5-min Rain = 0
KGU1 151642Z 23005KT 11/M09 A3021 RMK A01 T01081085  RH  025%=      5-min Rain = 0
KGU1 151643Z 24007KT 11/M09 A3021 RMK A01 T01071088  RH  025%=      5-min Rain = 0
KGU1 151644Z 29009G15KT 11/M11 A3021 RMK A01 T01091107  RH  021%=      5-min Rain = 0
KGU1 151645Z 29014G19KT 12/M14 A3021 RMK A01 T01191141  RH  015%=      5-min Rain = 0
KGU1 151646Z 29014G19KT 13/M14 A3021 RMK A01 T01281144  RH  014%=      5-min Rain = 0
KGU1 151647Z 30014KT 13/M14 A3021 RMK A01 T01331141  RH  014%=      5-min Rain = 0
KGU1 151648Z 29012KT 14/M14 A3021 RMK A01 T01371141  RH  013%=      5-min Rain = 0
KGU1 151649Z 29016KT 14/M15 A3021 RMK A01 T01401148  RH  012%=      5-min Rain = 0
KGU1 151650Z 30015G20KT 14/M15 A3021 RMK A01 T01411152  RH  012%=      5-min Rain = 0
KGU1 151651Z 30014G21KT 14/M15 A302 RMK A01 T01421148  RH  012%=      5-min Rain = 0
KGU1 151652Z 30017KT 14/M15 A302 RMK A01 T01441151  RH  012%=      5-min Rain = 0
KGU1 151653Z 30015G20KT 15/M15 A302 RMK A01 T01451151  RH  012%=      5-min Rain = 0
KGU1 151654Z 30015KT 15/M15 A302 RMK A01 T01461149  RH  012%=      5-min Rain = 0
KGU1 151655Z 30018KT 15/M16 A302 RMK A01 T01471157  RH  011%=      5-min Rain = 0
KGU1 151656Z 29016KT 15/M16 A302 RMK A01 T01471161  RH  011%=      5-min Rain = 0
KGU1 151657Z 29014KT 15/M16 A302 RMK A01 T01481157  RH  011%=      5-min Rain = 0
KGU1 151658Z 30014KT 15/M16 A302 RMK A01 T01491159  RH  011%=      5-min Rain = 0
KGU1 151659Z 29015KT 15/M16 A302 RMK A01 T01491160  RH  011%=      5-min Rain = 0
KGU1 151700Z 30017KT 15/M16 A3021 RMK A01 T01501163  RH  010%=      5-min Rain = 0
KGU1 151701Z 30016KT 15/M17 A302 RMK A01 T01511167  RH  010%=      5-min Rain = 0
KGU1 151702Z 29016G21KT 15/M17 A302 RMK A01 T01511166  RH  010%=      5-min Rain = 0
KGU1 151703Z 29017KT 15/M17 A302 RMK A01 T01511168  RH  010%=      5-min Rain = 0
KGU1 151704Z 29016G21KT 15/M17 A302 RMK A01 T01521165  RH  010%=      5-min Rain = 0
KGU1 151705Z 30016KT 15/M17 A302 RMK A01 T01531171  RH  009%=      5-min Rain = 0
KGU1 151706Z 30014KT 15/M17 A302 RMK A01 T01541168  RH  010%=      5-min Rain = 0
KGU1 151707Z 29014KT 16/M17 A302 RMK A01 T01561167  RH  010%=      5-min Rain = 0
KGU1 151708Z 29014KT 16/M17 A302 RMK A01 T01561172  RH  009%=      5-min Rain = 0
KGU1 151709Z 30012G18KT 16/M17 A302 RMK A01 T01571167  RH  009%=      5-min Rain = 0
KGU1 151710Z 29017KT 16/M17 A302 RMK A01 T01581172  RH  009%=      5-min Rain = 0
KGU1 151711Z 30013KT 16/M18 A302 RMK A01 T01591175  RH  009%=      5-min Rain = 0
KGU1 151712Z 29015KT 16/M17 A302 RMK A01 T01601170  RH  009%=      5-min Rain = 0
KGU1 151713Z 30012KT 16/M17 A302 RMK A01 T01611172  RH  009%=      5-min Rain = 0
KGU1 151714Z 29014KT 16/M17 A302 RMK A01 T01611174  RH  009%=      5-min Rain = 0
KGU1 151715Z 30015KT 16/M18 A302 RMK A01 T01611176  RH  009%=      5-min Rain = 0
KGU1 151716Z 30014KT 16/M17 A302 RMK A01 T01621174  RH  009%=      5-min Rain = 0
KGU1 151717Z 29016KT 16/M17 A302 RMK A01 T01631173  RH  009%=      5-min Rain = 0
KGU1 151718Z 30015KT 16/M17 A302 RMK A01 T01631174  RH  009%=      5-min Rain = 0
KGU1 151719Z 29013KT 16/M17 A302 RMK A01 T01641172  RH  009%=      5-min Rain = 0
KGU1 151720Z 29014KT 17/M17 A302 RMK A01 T01661172  RH  009%=      5-min Rain = 0
KGU1 151721Z 30011KT 17/M17 A302 RMK A01 T01681168  RH  009%=      5-min Rain = 0
KGU1 151722Z 29016KT 17/M17 A302 RMK A01 T01691171  RH  009%=      5-min Rain = 0
KGU1 151723Z 29013KT 17/M17 A302 RMK A01 T01711172  RH  008%=      5-min Rain = 0
KGU1 151724Z 29013KT 17/M17 A302 RMK A01 T01721168  RH  009%=      5-min Rain = 0
KGU1 151725Z 28017KT 17/M17 A302 RMK A01 T01731169  RH  008%=      5-min Rain = 0
KGU1 151726Z 29014KT 17/M17 A302 RMK A01 T01721171  RH  008%=      5-min Rain = 0
KGU1 151727Z 29011KT 17/M17 A302 RMK A01 T01731166  RH  009%=      5-min Rain = 0
KGU1 151728Z 29014G20KT 17/M17 A302 RMK A01 T01731168  RH  009%=      5-min Rain = 0
KGU1 151729Z 29015KT 17/M17 A302 RMK A01 T01731170  RH  008%=      5-min Rain = 0
KGU1 151730Z 29014KT 17/M17 A302 RMK A01 T01731166  RH  009%=      5-min Rain = 0
KGU1 151731Z 30013KT 17/M17 A302 RMK A01 T01721170  RH  008%=      5-min Rain = 0
KGU1 151732Z 29016KT 17/M17 A302 RMK A01 T01721169  RH  008%=      5-min Rain = 0
KGU1 151733Z 29015KT 17/M17 A302 RMK A01 T01701173  RH  008%=      5-min Rain = 0
KGU1 151734Z 29011KT 17/M17 A302 RMK A01 T01701168  RH  009%=      5-min Rain = 0
KGU1 151735Z 28012G18KT 17/M16 A3019 RMK A01 T01721164  RH  009%=      5-min Rain = 0
KGU1 151736Z 29014KT 17/M17 A3019 RMK A01 T01741165  RH  009%=      5-min Rain = 0
KGU1 151737Z 29014KT 18/M16 A3019 RMK A01 T01781164  RH  009%=      5-min Rain = 0
KGU1 151738Z 28015KT 18/M17 A3019 RMK A01 T01781167  RH  008%=      5-min Rain = 0
KGU1 151739Z 29015KT 18/M17 A3019 RMK A01 T01781167  RH  008%=      5-min Rain = 0
KGU1 151740Z 29015KT 18/M17 A3019 RMK A01 T01781170  RH  008%=      5-min Rain = 0
KGU1 151741Z 28015G20KT 18/M17 A3019 RMK A01 T01771168  RH  008%=      5-min Rain = 0
KGU1 151742Z 29017KT 18/M17 A3019 RMK A01 T01771169  RH  008%=      5-min Rain = 0
KGU1 151743Z 29014KT 18/M17 A3019 RMK A01 T01771166  RH  008%=      5-min Rain = 0
KGU1 151744Z 28015KT 18/M17 A3019 RMK A01 T01781166  RH  008%=      5-min Rain = 0
KGU1 151745Z 29013KT 18/M16 A3019 RMK A01 T01781163  RH  009%=      5-min Rain = 0
KGU1 151746Z 29015KT 18/M17 A3019 RMK A01 T01791165  RH  008%=      5-min Rain = 0
KGU1 151747Z 28014G19KT 18/M16 A3019 RMK A01 T01791158  RH  009%=      5-min Rain = 0
KGU1 151748Z 28017KT 18/M16 A3019 RMK A01 T01801160  RH  009%=      5-min Rain = 0
KGU1 151749Z 29013G19KT 18/M16 A3019 RMK A01 T01801159  RH  009%=      5-min Rain = 0
KGU1 151750Z 29014KT 18/M16 A3019 RMK A01 T01801159  RH  009%=      5-min Rain = 0
KGU1 151751Z 29014KT 18/M16 A3019 RMK A01 T01791161  RH  009%=      5-min Rain = 0
KGU1 151752Z 29016KT 18/M16 A3019 RMK A01 T01781162  RH  009%=      5-min Rain = 0
KGU1 151753Z 29015KT 18/M16 A3019 RMK A01 T01791159  RH  009%=      5-min Rain = 0
KGU1 151754Z 29014KT 18/M16 A3019 RMK A01 T01771159  RH  009%=      5-min Rain = 0
KGU1 151755Z 29012KT 18/M16 A3019 RMK A01 T01781158  RH  009%=      5-min Rain = 0
KGU1 151756Z 29013KT 18/M16 A3019 RMK A01 T01781160  RH  009%=      5-min Rain = 0
KGU1 151757Z 29013G18KT 18/M15 A3019 RMK A01 T01791154  RH  009%=      5-min Rain = 0
KGU1 151758Z 29014KT 18/M16 A3019 RMK A01 T01801155  RH  009%=      5-min Rain = 0
KGU1 151759Z 30013KT 18/M16 A3019 RMK A01 T01791157  RH  009%=      5-min Rain = 0
KGU1 151800Z 29014KT 18/M15 A3019 RMK A01 T01791154  RH  009%=      5-min Rain = 0
KGU1 151801Z 31012KT 18/M15 A3019 RMK A01 T01811153  RH  009%=      5-min Rain = 0
KGU1 151802Z 31011KT 18/M16 A3019 RMK A01 T01791156  RH  009%=      5-min Rain = 0
KGU1 151803Z 30012KT 18/M16 A3019 RMK A01 T01791156  RH  009%=      5-min Rain = 0
KGU1 151804Z 31012KT 18/M16 A3019 RMK A01 T01781155  RH  009%=      5-min Rain = 0
KGU1 151805Z 34012KT 18/M14 A3019 RMK A01 T01791144  RH  010%=      5-min Rain = 0
KGU1 151806Z 01008KT 18/M12 A3019 RMK A01 T01781118  RH  012%=      5-min Rain = 0
KGU1 151807Z 01005KT 17/M11 A3019 RMK A01 T01731110  RH  014%=      5-min Rain = 0
KGU1 151808Z 02005KT 17/M11 A3019 RMK A01 T01701113  RH  014%=      5-min Rain = 0
KGU1 151809Z 09004KT 17/M12 A3019 RMK A01 T01691118  RH  013%=      5-min Rain = 0
KGU1 151810Z 12005KT 17/M12 A3019 RMK A01 T01691121  RH  013%=      5-min Rain = 0
KGU1 151811Z 12009G14KT 17/M11 A3019 RMK A01 T01681106  RH  015%=      5-min Rain = 0
KGU1 151812Z 12011KT 16/M08 A3019 RMK A01 T01641083  RH  018%=      5-min Rain = 0
KGU1 151813Z 13009G15KT 16/M09 A3019 RMK A01 T01561093  RH  017%=      5-min Rain = 0
KGU1 151814Z 14009G14KT 15/M10 A3018 RMK A01 T01521096  RH  017%=      5-min Rain = 0
KGU1 151815Z 15004KT 15/M09 A3019 RMK A01 T01511092  RH  018%=      5-min Rain = 0
KGU1 151816Z 14004KT 15/M10 A3019 RMK A01 T01531102  RH  016%=      5-min Rain = 0
KGU1 151817Z 15009G15KT 16/M09 A3019 RMK A01 T01561090  RH  018%=      5-min Rain = 0
KGU1 151818Z 14012KT 15/M08 A3019 RMK A01 T01531078  RH  020%=      5-min Rain = 0
KGU1 151819Z 14009KT 15/M10 A3019 RMK A01 T01481095  RH  018%=      5-min Rain = 0
KGU1 151820Z 15015G20KT 15/M08 A3019 RMK A01 T01461080  RH  020%=      5-min Rain = 0
KGU1 151821Z 14014KT 14/M08 A3019 RMK A01 T01411079  RH  021%=      5-min Rain = 0
KGU1 151822Z 15009G16KT 14/M08 A3019 RMK A01 T01381084  RH  021%=      5-min Rain = 0
KGU1 151823Z 16017G23KT 14/M08 A3019 RMK A01 T01391084  RH  021%=      5-min Rain = 0
KGU1 151824Z 16016G24KT 14/M08 A3019 RMK A01 T01371080  RH  022%=      5-min Rain = 0
KGU1 151825Z 16012G17KT 14/M09 A3019 RMK A01 T01361088  RH  021%=      5-min Rain = 0
KGU1 151826Z 14008G13KT 14/M08 A3019 RMK A01 T01381084  RH  021%=      5-min Rain = 0
KGU1 151827Z 18017G22KT 14/M08 A3019 RMK A01 T01391082  RH  021%=      5-min Rain = 0
KGU1 151828Z 17016G23KT 14/M08 A3019 RMK A01 T01381081  RH  021%=      5-min Rain = 0
KGU1 151829Z 18014KT 14/M11 A3019 RMK A01 T01401106  RH  017%=      5-min Rain = 0
KGU1 151830Z 18007G13KT 14/M09 A302 RMK A01 T01431093  RH  019%=      5-min Rain = 0
KGU1 151831Z 16004G14KT 14/M09 A302 RMK A01 T01421092  RH  019%=      5-min Rain = 0
KGU1 151832Z 18013KT 14/M09 A302 RMK A01 T01441092  RH  019%=      5-min Rain = 0
KGU1 151833Z 18011G18KT 14/M08 A302 RMK A01 T01431083  RH  020%=      5-min Rain = 0
KGU1 151834Z 20013KT 14/M09 A302 RMK A01 T01401087  RH  020%=      5-min Rain = 0
KGU1 151835Z 17012KT 14/M11 A302 RMK A01 T01411106  RH  017%=      5-min Rain = 0
KGU1 151836Z 19008KT 14/M10 A302 RMK A01 T01441100  RH  018%=      5-min Rain = 0
KGU1 151837Z 19007KT 14/M10 A302 RMK A01 T01431097  RH  018%=      5-min Rain = 0
KGU1 151838Z 15005KT 14/M09 A302 RMK A01 T01441092  RH  019%=      5-min Rain = 0
KGU1 151839Z 13005KT 15/M09 A302 RMK A01 T01451087  RH  020%=      5-min Rain = 0
KGU1 151840Z 17005KT 15/M09 A302 RMK A01 T01451093  RH  019%=      5-min Rain = 0
KGU1 151841Z 19008KT 15/M09 A302 RMK A01 T01471087  RH  019%=      5-min Rain = 0
KGU1 151842Z 23004KT 15/M09 A302 RMK A01 T01461088  RH  019%=      5-min Rain = 0
KGU1 151843Z 19003KT 15/M10 A302 RMK A01 T01461098  RH  018%=      5-min Rain = 0
KGU1 151844Z 16002KT 15/M10 A302 RMK A01 T01481100  RH  017%=      5-min Rain = 0
KGU1 151845Z 15002KT 15/M10 A3021 RMK A01 T01501103  RH  017%=      5-min Rain = 0
KGU1 151846Z 12002KT 15/M10 A3021 RMK A01 T01531102  RH  016%=      5-min Rain = 0
KGU1 151847Z 16002KT 16/M11 A3021 RMK A01 T01551105  RH  016%=      5-min Rain = 0
KGU1 151848Z 13002KT 16/M10 A3021 RMK A01 T01571104  RH  016%=      5-min Rain = 0
KGU1 151849Z 05012G17KT 16/M09 A3021 RMK A01 T01571090  RH  018%=      5-min Rain = 0
KGU1 151850Z 05014KT 16/M08 A3021 RMK A01 T01561081  RH  019%=      5-min Rain = 0
KGU1 151851Z 07014KT 16/M08 A3021 RMK A01 T01551083  RH  019%=      5-min Rain = 0
KGU1 151852Z 08014KT 16/M08 A3021 RMK A01 T01551081  RH  019%=      5-min Rain = 0
KGU1 151853Z 07013KT 15/M08 A3021 RMK A01 T01521075  RH  020%=      5-min Rain = 0
KGU1 151854Z 07013KT 15/M07 A3021 RMK A01 T01521074  RH  021%=      5-min Rain = 0
KGU1 151855Z 06012KT 15/M07 A3021 RMK A01 T01511074  RH  021%=      5-min Rain = 0
KGU1 151856Z 05013KT 15/M08 A3021 RMK A01 T01501077  RH  020%=      5-min Rain = 0
KGU1 151857Z 05012KT 15/M08 A3021 RMK A01 T01481076  RH  021%=      5-min Rain = 0
KGU1 151858Z 06011KT 15/M08 A3021 RMK A01 T01481076  RH  021%=      5-min Rain = 0
KGU1 151859Z 06013KT 15/M08 A3021 RMK A01 T01471076  RH  021%=      5-min Rain = 0
KGU1 151900Z 06010KT 15/M08 A3022 RMK A01 T01471076  RH  021%=      5-min Rain = 0
KGU1 151901Z 07010KT 15/M08 A3022 RMK A01 T01471076  RH  021%=      5-min Rain = 0
KGU1 151902Z 08012KT 15/M08 A3021 RMK A01 T01471078  RH  021%=      5-min Rain = 0
KGU1 151903Z 08011KT 15/M08 A3021 RMK A01 T01471077  RH  021%=      5-min Rain = 0
KGU1 151904Z 06011KT 15/M08 A3021 RMK A01 T01471079  RH  021%=      5-min Rain = 0
KGU1 151905Z 06010KT 15/M08 A3021 RMK A01 T01471082  RH  020%=      5-min Rain = 0
KGU1 151906Z 08007KT 15/M08 A3021 RMK A01 T01481079  RH  020%=      5-min Rain = 0
KGU1 151907Z 07008KT 15/M08 A3021 RMK A01 T01511079  RH  020%=      5-min Rain = 0
KGU1 151908Z 07011KT 15/M08 A3021 RMK A01 T01531080  RH  020%=      5-min Rain = 0
KGU1 151909Z 07010KT 15/M08 A3021 RMK A01 T01521078  RH  020%=      5-min Rain = 0
KGU1 151910Z 07010KT 15/M08 A3021 RMK A01 T01521077  RH  020%=      5-min Rain = 0
KGU1 151911Z 07008KT 15/M07 A3021 RMK A01 T01531074  RH  020%=      5-min Rain = 0
KGU1 151912Z 07010G15KT 15/M08 A3021 RMK A01 T01541079  RH  020%=      5-min Rain = 0
KGU1 151913Z 07011KT 15/M08 A3021 RMK A01 T01521076  RH  020%=      5-min Rain = 0
KGU1 151914Z 07012KT 15/M08 A3021 RMK A01 T01511080  RH  020%=      5-min Rain = 0
KGU1 151915Z 06011KT 15/M08 A3021 RMK A01 T01481082  RH  020%=      5-min Rain = 0
KGU1 151916Z 06011KT 15/M08 A3021 RMK A01 T01481081  RH  020%=      5-min Rain = 0
KGU1 151917Z 06011KT 15/M08 A3022 RMK A01 T01471084  RH  020%=      5-min Rain = 0
KGU1 151918Z 06011KT 15/M08 A3021 RMK A01 T01471081  RH  020%=      5-min Rain = 0
KGU1 151919Z 08013KT 15/M08 A3021 RMK A01 T01451081  RH  020%=      5-min Rain = 0
KGU1 151920Z 07011KT 14/M08 A3021 RMK A01 T01441081  RH  021%=      5-min Rain = 0
KGU1 151921Z 07013KT 14/M08 A3021 RMK A01 T01431080  RH  021%=      5-min Rain = 0
KGU1 151922Z 06012KT 14/M08 A3021 RMK A01 T01411079  RH  021%=      5-min Rain = 0
KGU1 151923Z 08011KT 14/M08 A3021 RMK A01 T01401077  RH  022%=      5-min Rain = 0
KGU1 151924Z 08012KT 14/M08 A3021 RMK A01 T01421076  RH  022%=      5-min Rain = 0
KGU1 151925Z 09013KT 14/M08 A3021 RMK A01 T01421077  RH  022%=      5-min Rain = 0
KGU1 151926Z 09015KT 14/M08 A3021 RMK A01 T01401075  RH  022%=      5-min Rain = 0
KGU1 151927Z 09012KT 14/M07 A3021 RMK A01 T01391073  RH  023%=      5-min Rain = 0
KGU1 151928Z 09009KT 14/M07 A3021 RMK A01 T01411073  RH  022%=      5-min Rain = 0
KGU1 151929Z 08010KT 14/M08 A3021 RMK A01 T01411075  RH  022%=      5-min Rain = 0
KGU1 151930Z 08008KT 14/M08 A3021 RMK A01 T01401075  RH  022%=      5-min Rain = 0
KGU1 151931Z 07009KT 14/M07 A3021 RMK A01 T01401072  RH  023%=      5-min Rain = 0
KGU1 151932Z 07009G14KT 14/M07 A3021 RMK A01 T01411071  RH  023%=      5-min Rain = 0
KGU1 151933Z 09012KT 14/M07 A3021 RMK A01 T01421073  RH  022%=      5-min Rain = 0
KGU1 151934Z 08011KT 14/M07 A3021 RMK A01 T01391074  RH  022%=      5-min Rain = 0
KGU1 151935Z 08008KT 14/M07 A3021 RMK A01 T01371074  RH  023%=      5-min Rain = 0
KGU1 151936Z 09009KT 14/M07 A3021 RMK A01 T01381072  RH  023%=      5-min Rain = 0
KGU1 151937Z 08011KT 14/M07 A3021 RMK A01 T01381072  RH  023%=      5-min Rain = 0
KGU1 151938Z 09010KT 14/M07 A3021 RMK A01 T01381072  RH  023%=      5-min Rain = 0
KGU1 151939Z 08010KT 14/M07 A3021 RMK A01 T01371073  RH  023%=      5-min Rain = 0
KGU1 151940Z 09009KT 14/M07 A3021 RMK A01 T01361073  RH  023%=      5-min Rain = 0
KGU1 151941Z 08007KT 14/M07 A3021 RMK A01 T01361070  RH  023%=      5-min Rain = 0
KGU1 151942Z 08008KT 14/M07 A3021 RMK A01 T01381072  RH  023%=      5-min Rain = 0
KGU1 151943Z 08007KT 14/M07 A3021 RMK A01 T01381072  RH  023%=      5-min Rain = 0
KGU1 151944Z 10009KT 14/M07 A3021 RMK A01 T01381072  RH  023%=      5-min Rain = 0
KGU1 151945Z 09009KT 14/M07 A3021 RMK A01 T01371070  RH  023%=      5-min Rain = 0
KGU1 151946Z 08007KT 14/M07 A3021 RMK A01 T01371073  RH  023%=      5-min Rain = 0
KGU1 151947Z 08008KT 14/M07 A3021 RMK A01 T01361073  RH  023%=      5-min Rain = 0
KGU1 151948Z 08004KT 14/M07 A3021 RMK A01 T01351073  RH  023%=      5-min Rain = 0
KGU1 151949Z 08006KT 14/M07 A3021 RMK A01 T01361074  RH  023%=      5-min Rain = 0
KGU1 151950Z 07005KT 14/M07 A3021 RMK A01 T01351074  RH  023%=      5-min Rain = 0
KGU1 151951Z 07005KT 14/M08 A3021 RMK A01 T01351076  RH  023%=      5-min Rain = 0
KGU1 151952Z 10003KT 13/M07 A3021 RMK A01 T01341074  RH  023%=      5-min Rain = 0
KGU1 151953Z 14003KT 14/M07 A3021 RMK A01 T01361074  RH  023%=      5-min Rain = 0
KGU1 151954Z 12005KT 14/M07 A3021 RMK A01 T01381074  RH  022%=      5-min Rain = 0
KGU1 151955Z 10004KT 14/M08 A3021 RMK A01 T01391076  RH  022%=      5-min Rain = 0
KGU1 151956Z 14006KT 14/M07 A3021 RMK A01 T01381073  RH  023%=      5-min Rain = 0
KGU1 151957Z 15006KT 14/M07 A302 RMK A01 T01391072  RH  023%=      5-min Rain = 0
KGU1 151958Z 17004KT 14/M08 A302 RMK A01 T01391076  RH  022%=      5-min Rain = 0
KGU1 151959Z 19001KT 14/M07 A302 RMK A01 T01391071  RH  023%=      5-min Rain = 0
KGU1 152000Z 16007KT 14/M07 A302 RMK A01 T01411074  RH  022%=      5-min Rain = 0
KGU1 152001Z 15008KT 14/M08 A302 RMK A01 T01401075  RH  022%=      5-min Rain = 0
KGU1 152002Z 14006KT 14/M07 A302 RMK A01 T01381074  RH  022%=      5-min Rain = 0
KGU1 152003Z 14006KT 14/M07 A302 RMK A01 T01381071  RH  023%=      5-min Rain = 0
KGU1 152004Z 15009KT 14/M07 A302 RMK A01 T01391071  RH  023%=      5-min Rain = 0
KGU1 152005Z 15008KT 14/M07 A302 RMK A01 T01401074  RH  022%=      5-min Rain = 0
KGU1 152006Z 13005KT 14/M07 A302 RMK A01 T01391072  RH  023%=      5-min Rain = 0
KGU1 152007Z 15008KT 14/M07 A302 RMK A01 T01391071  RH  023%=      5-min Rain = 0
KGU1 152008Z 15009KT 14/M07 A302 RMK A01 T01381073  RH  023%=      5-min Rain = 0
KGU1 152009Z 16006KT 14/M07 A302 RMK A01 T01381072  RH  023%=      5-min Rain = 0
KGU1 152010Z 16004KT 14/M07 A302 RMK A01 T01381069  RH  023%=      5-min Rain = 0
KGU1 152011Z 16005KT 14/M07 A302 RMK A01 T01401071  RH  023%=      5-min Rain = 0
KGU1 152012Z 14009KT 14/M07 A302 RMK A01 T01421069  RH  023%=      5-min Rain = 0
KGU1 152013Z 16008KT 14/M07 A302 RMK A01 T01421074  RH  022%=      5-min Rain = 0
KGU1 152014Z 14004KT 14/M07 A302 RMK A01 T01401071  RH  023%=      5-min Rain = 0
KGU1 152015Z 15008KT 14/M07 A302 RMK A01 T01411074  RH  022%=      5-min Rain = 0
KGU1 152016Z 16008G14KT 14/M07 A302 RMK A01 T01391074  RH  022%=      5-min Rain = 0
KGU1 152017Z 15009KT 14/M07 A302 RMK A01 T01371072  RH  023%=      5-min Rain = 0
KGU1 152018Z 14008KT 14/M08 A302 RMK A01 T01351076  RH  023%=      5-min Rain = 0
KGU1 152019Z 15009KT 13/M08 A302 RMK A01 T01301075  RH  023%=      5-min Rain = 0
KGU1 152020Z 14009KT 13/M07 A302 RMK A01 T01281074  RH  024%=      5-min Rain = 0
KGU1 152021Z 15009G14KT 13/M07 A3019 RMK A01 T01281073  RH  024%=      5-min Rain = 0
KGU1 152022Z 15013KT 13/M07 A3019 RMK A01 T01301074  RH  024%=      5-min Rain = 0
KGU1 152023Z 15013KT 13/M07 A3019 RMK A01 T01291074  RH  024%=      5-min Rain = 0
KGU1 152024Z 14013KT 13/M08 A3019 RMK A01 T01261075  RH  024%=      5-min Rain = 0
KGU1 152025Z 15013KT 12/M07 A3019 RMK A01 T01241074  RH  025%=      5-min Rain = 0
KGU1 152026Z 15013KT 12/M08 A3019 RMK A01 T01221076  RH  025%=      5-min Rain = 0
KGU1 152027Z 15010KT 12/M07 A3019 RMK A01 T01201074  RH  025%=      5-min Rain = 0
KGU1 152028Z 15013KT 12/M08 A3019 RMK A01 T01211075  RH  025%=      5-min Rain = 0
KGU1 152029Z 14012KT 12/M07 A3019 RMK A01 T01221074  RH  025%=      5-min Rain = 0
KGU1 152030Z 14011KT 12/M07 A3019 RMK A01 T01241073  RH  025%=      5-min Rain = 0
KGU1 152031Z 15013KT 13/M07 A3019 RMK A01 T01261074  RH  024%=      5-min Rain = 0
KGU1 152032Z 14013KT 13/M08 A3019 RMK A01 T01261075  RH  024%=      5-min Rain = 0
KGU1 152033Z 15013KT 13/M07 A3019 RMK A01 T01251074  RH  024%=      5-min Rain = 0
KGU1 152034Z 14010KT 13/M07 A302 RMK A01 T01251073  RH  025%=      5-min Rain = 0
KGU1 152035Z 14011KT 13/M08 A302 RMK A01 T01261076  RH  024%=      5-min Rain = 0
KGU1 152036Z 13010KT 13/M08 A302 RMK A01 T01251075  RH  024%=      5-min Rain = 0
KGU1 152037Z 13010KT 13/M07 A302 RMK A01 T01261074  RH  024%=      5-min Rain = 0
KGU1 152038Z 15008KT 13/M07 A302 RMK A01 T01281074  RH  024%=      5-min Rain = 0
KGU1 152039Z 14010KT 13/M08 A302 RMK A01 T01281075  RH  024%=      5-min Rain = 0
KGU1 152040Z 14010KT 13/M08 A302 RMK A01 T01281076  RH  024%=      5-min Rain = 0
KGU1 152041Z 15010KT 13/M07 A302 RMK A01 T01271074  RH  024%=      5-min Rain = 0
KGU1 152042Z 14011KT 13/M07 A3019 RMK A01 T01281071  RH  025%=      5-min Rain = 0
KGU1 152043Z 14012KT 13/M07 A3019 RMK A01 T01311072  RH  024%=      5-min Rain = 0
KGU1 152044Z 15013KT 13/M07 A3019 RMK A01 T01311073  RH  024%=      5-min Rain = 0
KGU1 152045Z 14013KT 13/M07 A3019 RMK A01 T01291074  RH  024%=      5-min Rain = 0
KGU1 152046Z 15013KT 13/M07 A3019 RMK A01 T01281074  RH  024%=      5-min Rain = 0
KGU1 152047Z 15011KT 13/M07 A3019 RMK A01 T01291071  RH  024%=      5-min Rain = 0
KGU1 152048Z 14011KT 13/M07 A3019 RMK A01 T01301073  RH  024%=      5-min Rain = 0
KGU1 152049Z 15013KT 13/M07 A3019 RMK A01 T01311073  RH  024%=      5-min Rain = 0
KGU1 152050Z 15011KT 13/M07 A3019 RMK A01 T01301072  RH  024%=      5-min Rain = 0
KGU1 152051Z 16010KT 13/M07 A3019 RMK A01 T01311072  RH  024%=      5-min Rain = 0
KGU1 152052Z 15013KT 13/M07 A3019 RMK A01 T01321072  RH  024%=      5-min Rain = 0
KGU1 152053Z 14011KT 13/M07 A3019 RMK A01 T01321072  RH  024%=      5-min Rain = 0
KGU1 152054Z 15010KT 13/M07 A3019 RMK A01 T01331071  RH  024%=      5-min Rain = 0
KGU1 152055Z 16012KT 13/M07 A3019 RMK A01 T01341074  RH  023%=      5-min Rain = 0
KGU1 152056Z 15012KT 13/M08 A3019 RMK A01 T01331077  RH  023%=      5-min Rain = 0
KGU1 152057Z 13010KT 13/M07 A3018 RMK A01 T01331073  RH  023%=      5-min Rain = 0
KGU1 152058Z 10011G17KT 13/M07 A3018 RMK A01 T01331073  RH  023%=      5-min Rain = 0
KGU1 152059Z 13009KT 13/M07 A3019 RMK A01 T01331072  RH  024%=      5-min Rain = 0
KGU1 152100Z 13008KT 13/M07 A3019 RMK A01 T01341071  RH  024%=      5-min Rain = 0
KGU1 152101Z 14011KT 13/M07 A3019 RMK A01 T01341072  RH  024%=      5-min Rain = 0
KGU1 152102Z 11012KT 13/M07 A3019 RMK A01 T01331068  RH  024%=      5-min Rain = 0
KGU1 152103Z 11013KT 13/M07 A3019 RMK A01 T01301067  RH  025%=      5-min Rain = 0
KGU1 152104Z 11014KT 13/M07 A3019 RMK A01 T01271068  RH  026%=      5-min Rain = 0
KGU1 152105Z 10013KT 12/M07 A3019 RMK A01 T01231067  RH  026%=      5-min Rain = 0
KGU1 152106Z 10015KT 12/M07 A3019 RMK A01 T01211067  RH  027%=      5-min Rain = 0
KGU1 152107Z 10016KT 12/M07 A3019 RMK A01 T01171068  RH  027%=      5-min Rain = 0
KGU1 152108Z 11012KT 11/M07 A3019 RMK A01 T01141066  RH  028%=      5-min Rain = 0
KGU1 152109Z 11011KT 11/M07 A3019 RMK A01 T01141066  RH  028%=      5-min Rain = 0
KGU1 152110Z 10011G17KT 11/M07 A302 RMK A01 T01141065  RH  028%=      5-min Rain = 0
KGU1 152111Z 10015KT 11/M07 A302 RMK A01 T01131067  RH  028%=      5-min Rain = 0
KGU1 152112Z 10015G20KT 11/M07 A302 RMK A01 T01091068  RH  029%=      5-min Rain = 0
KGU1 152113Z 09015G20KT 11/M07 A302 RMK A01 T01061068  RH  029%=      5-min Rain = 0
KGU1 152114Z 09015KT 10/M07 A302 RMK A01 T01041069  RH  029%=      5-min Rain = 0
KGU1 152115Z 09016KT 10/M07 A302 RMK A01 T01021069  RH  030%=      5-min Rain = 0
KGU1 152116Z 09017KT 10/M07 A302 RMK A01 T01001070  RH  030%=      5-min Rain = 0
KGU1 152117Z 10015KT 10/M07 A302 RMK A01 T00991069  RH  030%=      5-min Rain = 0
KGU1 152118Z 10014KT 10/M07 A302 RMK A01 T00991068  RH  030%=      5-min Rain = 0
KGU1 152119Z 10014KT 10/M07 A302 RMK A01 T01001069  RH  030%=      5-min Rain = 0
KGU1 152120Z 09013KT 10/M07 A302 RMK A01 T01001069  RH  030%=      5-min Rain = 0
KGU1 152121Z 08014KT 10/M07 A302 RMK A01 T00991070  RH  030%=      5-min Rain = 0
KGU1 152122Z 10012G17KT 10/M07 A302 RMK A01 T00971068  RH  031%=      5-min Rain = 0
KGU1 152123Z 10013KT 10/M07 A302 RMK A01 T00981069  RH  031%=      5-min Rain = 0
KGU1 152124Z 08013KT 10/M07 A3021 RMK A01 T00981068  RH  031%=      5-min Rain = 0
KGU1 152125Z 09016KT 10/M07 A3021 RMK A01 T00971069  RH  031%=      5-min Rain = 0
KGU1 152126Z 09012G18KT 10/M07 A3021 RMK A01 T00961068  RH  031%=      5-min Rain = 0
KGU1 152127Z 08012G17KT 10/M07 A3021 RMK A01 T00961069  RH  031%=      5-min Rain = 0
KGU1 152128Z 09012G17KT 10/M07 A3021 RMK A01 T00961068  RH  031%=      5-min Rain = 0
KGU1 152129Z 09014KT 10/M07 A3021 RMK A01 T00961068  RH  031%=      5-min Rain = 0
KGU1 152130Z 09014KT 09/M07 A3021 RMK A01 T00941068  RH  032%=      5-min Rain = 0
KGU1 152131Z 08014KT 09/M07 A3021 RMK A01 T00931069  RH  031%=      5-min Rain = 0
KGU1 152132Z 08011KT 09/M07 A3021 RMK A01 T00921069  RH  032%=      5-min Rain = 0
KGU1 152133Z 08012KT 09/M07 A3021 RMK A01 T00911069  RH  032%=      5-min Rain = 0
KGU1 152134Z 07011KT 09/M07 A3021 RMK A01 T00911068  RH  032%=      5-min Rain = 0
KGU1 152135Z 08012KT 09/M07 A3021 RMK A01 T00911069  RH  032%=      5-min Rain = 0
KGU1 152136Z 08010KT 09/M07 A3022 RMK A01 T00901068  RH  032%=      5-min Rain = 0
KGU1 152137Z 09012KT 09/M07 A3022 RMK A01 T00911068  RH  032%=      5-min Rain = 0
KGU1 152138Z 07009G14KT 09/M07 A3022 RMK A01 T00911067  RH  032%=      5-min Rain = 0
KGU1 152139Z 07010KT 09/M07 A3022 RMK A01 T00921067  RH  032%=      5-min Rain = 0
KGU1 152140Z 08011KT 09/M07 A3022 RMK A01 T00901068  RH  032%=      5-min Rain = 0
KGU1 152141Z 08012KT 09/M07 A3022 RMK A01 T00891069  RH  032%=      5-min Rain = 0
KGU1 152142Z 08010KT 09/M07 A3022 RMK A01 T00871069  RH  033%=      5-min Rain = 0
KGU1 152143Z 09008KT 09/M07 A3022 RMK A01 T00881067  RH  033%=      5-min Rain = 0
KGU1 152144Z 10010KT 09/M07 A3022 RMK A01 T00901067  RH  033%=      5-min Rain = 0
KGU1 152145Z 09011KT 09/M07 A3022 RMK A01 T00891067  RH  033%=      5-min Rain = 0
KGU1 152146Z 08009KT 09/M07 A3022 RMK A01 T00891067  RH  033%=      5-min Rain = 0
KGU1 152147Z 09008KT 09/M07 A3022 RMK A01 T00891067  RH  033%=      5-min Rain = 0
KGU1 152148Z 09009KT 09/M07 A3022 RMK A01 T00901067  RH  033%=      5-min Rain = 0
KGU1 152149Z 09012KT 09/M07 A3022 RMK A01 T00901068  RH  033%=      5-min Rain = 0
KGU1 152150Z 09012KT 09/M07 A3022 RMK A01 T00891066  RH  033%=      5-min Rain = 0
KGU1 152151Z 09010KT 09/M07 A3022 RMK A01 T00891066  RH  033%=      5-min Rain = 0
KGU1 152152Z 08011KT 09/M07 A3022 RMK A01 T00881067  RH  033%=      5-min Rain = 0
KGU1 152153Z 08010KT 09/M07 A3022 RMK A01 T00871066  RH  034%=      5-min Rain = 0
KGU1 152154Z 08009KT 09/M07 A3022 RMK A01 T00871067  RH  033%=      5-min Rain = 0
KGU1 152155Z 07008KT 09/M07 A3022 RMK A01 T00871065  RH  034%=      5-min Rain = 0
KGU1 152156Z 07008KT 09/M07 A3022 RMK A01 T00881065  RH  034%=      5-min Rain = 0
KGU1 152157Z 07012KT 09/M07 A3022 RMK A01 T00871065  RH  034%=      5-min Rain = 0
KGU1 152158Z 06009KT 09/M07 A3022 RMK A01 T00861065  RH  034%=      5-min Rain = 0
KGU1 152159Z 07010KT 09/M07 A3022 RMK A01 T00851065  RH  034%=      5-min Rain = 0
KGU1 152200Z 08011KT 08/M07 A3022 RMK A01 T00841065  RH  035%=      5-min Rain = 0
KGU1 152201Z 09011KT 08/M07 A3022 RMK A01 T00821065  RH  035%=      5-min Rain = 0
KGU1 152202Z 08010KT 08/M07 A3023 RMK A01 T00811066  RH  035%=      5-min Rain = 0
KGU1 152203Z 09009KT 08/M06 A3023 RMK A01 T00811064  RH  036%=      5-min Rain = 0
KGU1 152204Z 08010KT 08/M07 A3023 RMK A01 T00811067  RH  035%=      5-min Rain = 0
KGU1 152205Z 08010KT 08/M07 A3023 RMK A01 T00811066  RH  035%=      5-min Rain = 0
KGU1 152206Z 06009KT 08/M07 A3023 RMK A01 T00801065  RH  035%=      5-min Rain = 0
KGU1 152207Z 07008KT 08/M07 A3023 RMK A01 T00801065  RH  035%=      5-min Rain = 0
KGU1 152208Z 08010KT 08/M06 A3022 RMK A01 T00801064  RH  036%=      5-min Rain = 0
KGU1 152209Z 08009KT 08/M06 A3022 RMK A01 T00801064  RH  036%=      5-min Rain = 0
KGU1 152210Z 06008KT 08/M06 A3023 RMK A01 T00801064  RH  036%=      5-min Rain = 0
KGU1 152211Z 06007KT 08/M06 A3023 RMK A01 T00801062  RH  036%=      5-min Rain = 0
KGU1 152212Z 07009KT 08/M06 A3023 RMK A01 T00811063  RH  036%=      5-min Rain = 0
KGU1 152213Z 07007KT 08/M06 A3023 RMK A01 T00821064  RH  035%=      5-min Rain = 0
KGU1 152214Z 08009KT 08/M06 A3023 RMK A01 T00831062  RH  035%=      5-min Rain = 0
KGU1 152215Z 08007KT 09/M06 A3023 RMK A01 T00851062  RH  035%=      5-min Rain = 0
KGU1 152216Z 08007KT 08/M06 A3023 RMK A01 T00841062  RH  035%=      5-min Rain = 0
KGU1 152217Z 07008KT 09/M06 A3023 RMK A01 T00851061  RH  036%=      5-min Rain = 0
KGU1 152218Z 07011KT 09/M06 A3023 RMK A01 T00851062  RH  035%=      5-min Rain = 0
KGU1 152219Z 08009KT 08/M06 A3023 RMK A01 T00831059  RH  036%=      5-min Rain = 0
KGU1 152220Z 08009KT 08/M06 A3023 RMK A01 T00821060  RH  036%=      5-min Rain = 0
KGU1 152221Z 07008KT 08/M06 A3023 RMK A01 T00811060  RH  037%=      5-min Rain = 0
KGU1 152222Z 07011KT 08/M06 A3023 RMK A01 T00811060  RH  037%=      5-min Rain = 0
KGU1 152223Z 07012KT 08/M06 A3023 RMK A01 T00801060  RH  037%=      5-min Rain = 0
KGU1 152224Z 07012KT 08/M06 A3023 RMK A01 T00791059  RH  037%=      5-min Rain = 0
KGU1 152225Z 07011KT 08/M06 A3023 RMK A01 T00781058  RH  038%=      5-min Rain = 0
KGU1 152226Z 07011KT 08/M06 A3022 RMK A01 T00781059  RH  038%=      5-min Rain = 0
KGU1 152227Z 07009KT 08/M06 A3023 RMK A01 T00781058  RH  038%=      5-min Rain = 0
KGU1 152228Z 07009KT 08/M06 A3023 RMK A01 T00791057  RH  038%=      5-min Rain = 0
KGU1 152229Z 07009KT 08/M06 A3023 RMK A01 T00801057  RH  038%=      5-min Rain = 0
KGU1 152230Z 07009KT 08/M06 A3023 RMK A01 T00801057  RH  038%=      5-min Rain = 0
KGU1 152231Z 07010KT 08/M06 A3023 RMK A01 T00791057  RH  038%=      5-min Rain = 0
KGU1 152232Z 07010KT 08/M06 A3023 RMK A01 T00791057  RH  038%=      5-min Rain = 0
KGU1 152233Z 07008KT 08/M06 A3023 RMK A01 T00791056  RH  038%=      5-min Rain = 0
KGU1 152234Z 07009KT 08/M06 A3023 RMK A01 T00791056  RH  038%=      5-min Rain = 0
KGU1 152235Z 09008KT 08/M06 A3023 RMK A01 T00791055  RH  039%=      5-min Rain = 0
KGU1 152236Z 08009KT 08/M06 A3023 RMK A01 T00801055  RH  038%=      5-min Rain = 0
KGU1 152237Z 09009KT 08/M06 A3023 RMK A01 T00811055  RH  038%=      5-min Rain = 0
KGU1 152238Z 10011KT 08/M06 A3023 RMK A01 T00791056  RH  038%=      5-min Rain = 0
KGU1 152239Z 09011KT 08/M06 A3023 RMK A01 T00771056  RH  039%=      5-min Rain = 0
KGU1 152240Z 09011KT 08/M06 A3023 RMK A01 T00761056  RH  039%=      5-min Rain = 0
KGU1 152241Z 08011KT 08/M06 A3023 RMK A01 T00751055  RH  039%=      5-min Rain = 0
KGU1 152242Z 08011KT 07/M06 A3023 RMK A01 T00741056  RH  040%=      5-min Rain = 0
KGU1 152243Z 08010KT 07/M06 A3024 RMK A01 T00731055  RH  040%=      5-min Rain = 0
KGU1 152244Z 08011KT 07/M06 A3024 RMK A01 T00721056  RH  040%=      5-min Rain = 0
KGU1 152245Z 09012KT 07/M06 A3024 RMK A01 T00711056  RH  040%=      5-min Rain = 0
KGU1 152246Z 08013KT 07/M06 A3024 RMK A01 T00701056  RH  041%=      5-min Rain = 0
KGU1 152247Z 08012KT 07/M06 A3024 RMK A01 T00691056  RH  041%=      5-min Rain = 0
KGU1 152248Z 09012KT 07/M06 A3024 RMK A01 T00681056  RH  041%=      5-min Rain = 0
KGU1 152249Z 08012KT 07/M06 A3024 RMK A01 T00671055  RH  042%=      5-min Rain = 0
KGU1 152250Z 09011KT 07/M06 A3024 RMK A01 T00661056  RH  042%=      5-min Rain = 0
KGU1 152251Z 09009KT 07/M06 A3024 RMK A01 T00661055  RH  042%=      5-min Rain = 0
KGU1 152252Z 09013KT 07/M06 A3024 RMK A01 T00661056  RH  042%=      5-min Rain = 0
KGU1 152253Z 09011KT 06/M06 A3024 RMK A01 T00641056  RH  042%=      5-min Rain = 0
KGU1 152254Z 09011KT 06/M06 A3024 RMK A01 T00621056  RH  043%=      5-min Rain = 0
KGU1 152255Z 10013KT 06/M05 A3024 RMK A01 T00611054  RH  044%=      5-min Rain = 0
KGU1 152256Z 09012KT 06/M05 A3024 RMK A01 T00601054  RH  044%=      5-min Rain = 0
KGU1 152257Z 09012KT 06/M06 A3024 RMK A01 T00601055  RH  044%=      5-min Rain = 0
KGU1 152258Z 09011KT 06/M06 A3024 RMK A01 T00591055  RH  044%=      5-min Rain = 0
KGU1 152259Z 09010KT 06/M05 A3024 RMK A01 T00591054  RH  045%=      5-min Rain = 0
KGU1 152300Z 09012KT 06/M05 A3024 RMK A01 T00591054  RH  044%=      5-min Rain = 0
KGU1 152301Z 09012KT 06/M05 A3024 RMK A01 T00581053  RH  045%=      5-min Rain = 0
KGU1 152302Z 09012KT 06/M05 A3024 RMK A01 T00581053  RH  045%=      5-min Rain = 0
KGU1 152303Z 08009KT 06/M05 A3025 RMK A01 T00581053  RH  045%=      5-min Rain = 0
KGU1 152304Z 08009KT 06/M05 A3025 RMK A01 T00591053  RH  045%=      5-min Rain = 0
KGU1 152305Z 09010KT 06/M05 A3025 RMK A01 T00591053  RH  045%=      5-min Rain = 0
KGU1 152306Z 09012KT 06/M05 A3025 RMK A01 T00591053  RH  045%=      5-min Rain = 0
KGU1 152307Z 09011KT 06/M05 A3025 RMK A01 T00571053  RH  046%=      5-min Rain = 0
KGU1 152308Z 08010KT 06/M05 A3025 RMK A01 T00561053  RH  046%=      5-min Rain = 0
KGU1 152309Z 08012KT 06/M05 A3025 RMK A01 T00551054  RH  046%=      5-min Rain = 0
KGU1 152310Z 08010KT 05/M05 A3025 RMK A01 T00541053  RH  046%=      5-min Rain = 0
KGU1 152311Z 08011KT 05/M05 A3025 RMK A01 T00531054  RH  047%=      5-min Rain = 0
KGU1 152312Z 08010G15KT 05/M05 A3025 RMK A01 T00531053  RH  047%=      5-min Rain = 0
KGU1 152313Z 08012KT 05/M06 A3025 RMK A01 T00521055  RH  047%=      5-min Rain = 0
KGU1 152314Z 08010KT 05/M05 A3025 RMK A01 T00511054  RH  047%=      5-min Rain = 0
KGU1 152315Z 09011KT 05/M05 A3025 RMK A01 T00501054  RH  047%=      5-min Rain = 0
KGU1 152316Z 09011KT 05/M05 A3026 RMK A01 T00481054  RH  048%=      5-min Rain = 0
KGU1 152317Z 07011KT 05/M06 A3026 RMK A01 T00481055  RH  048%=      5-min Rain = 0
KGU1 152318Z 08010KT 05/M06 A3026 RMK A01 T00471055  RH  048%=      5-min Rain = 0
KGU1 152319Z 09009KT 05/M05 A3026 RMK A01 T00461054  RH  049%=      5-min Rain = 0
KGU1 152320Z 08008KT 05/M05 A3026 RMK A01 T00461054  RH  049%=      5-min Rain = 0
KGU1 152321Z 09012KT 05/M05 A3026 RMK A01 T00461054  RH  049%=      5-min Rain = 0
KGU1 152322Z 09012KT 04/M06 A3026 RMK A01 T00441055  RH  049%=      5-min Rain = 0
KGU1 152323Z 08009KT 04/M05 A3026 RMK A01 T00431054  RH  050%=      5-min Rain = 0
KGU1 152324Z 08012KT 04/M06 A3026 RMK A01 T00431055  RH  050%=      5-min Rain = 0
KGU1 152325Z 08011KT 04/M06 A3026 RMK A01 T00411055  RH  050%=      5-min Rain = 0
KGU1 152326Z 08010KT 04/M06 A3026 RMK A01 T00411055  RH  050%=      5-min Rain = 0
KGU1 152327Z 08012KT 04/M06 A3026 RMK A01 T00401055  RH  051%=      5-min Rain = 0
KGU1 152328Z 08012KT 04/M06 A3026 RMK A01 T00391055  RH  051%=      5-min Rain = 0
KGU1 152329Z 08010KT 04/M06 A3027 RMK A01 T00381055  RH  051%=      5-min Rain = 0
KGU1 152330Z 08012KT 04/M06 A3027 RMK A01 T00381055  RH  051%=      5-min Rain = 0
KGU1 152331Z 08010KT 04/M06 A3027 RMK A01 T00381055  RH  051%=      5-min Rain = 0
KGU1 152332Z 08010KT 04/M05 A3027 RMK A01 T00371054  RH  052%=      5-min Rain = 0
KGU1 152333Z 08010KT 04/M05 A3027 RMK A01 T00371054  RH  052%=      5-min Rain = 0
KGU1 152334Z 08009KT 04/M05 A3027 RMK A01 T00371054  RH  052%=      5-min Rain = 0
KGU1 152335Z 08010KT 04/M06 A3027 RMK A01 T00371055  RH  052%=      5-min Rain = 0
KGU1 152336Z 08010KT 04/M06 A3027 RMK A01 T00361055  RH  052%=      5-min Rain = 0
KGU1 152337Z 08008KT 04/M06 A3027 RMK A01 T00351055  RH  052%=      5-min Rain = 0
KGU1 152338Z 09010KT 04/M06 A3028 RMK A01 T00351055  RH  053%=      5-min Rain = 0
KGU1 152339Z 08010G15KT 03/M06 A3028 RMK A01 T00341055  RH  053%=      5-min Rain = 0
KGU1 152340Z 09011KT 03/M06 A3028 RMK A01 T00331055  RH  053%=      5-min Rain = 0
KGU1 152341Z 09010KT 03/M06 A3028 RMK A01 T00311055  RH  054%=      5-min Rain = 0
KGU1 152342Z 08010KT 03/M06 A3028 RMK A01 T00311055  RH  054%=      5-min Rain = 0
KGU1 152343Z 08010KT 03/M06 A3028 RMK A01 T00301055  RH  054%=      5-min Rain = 0
KGU1 152344Z 08010KT 03/M06 A3028 RMK A01 T00291055  RH  055%=      5-min Rain = 0
KGU1 152345Z 09010KT 03/M06 A3028 RMK A01 T00281055  RH  055%=      5-min Rain = 0
KGU1 152346Z 08007KT 03/M06 A3028 RMK A01 T00271055  RH  055%=      5-min Rain = 0
KGU1 152347Z 08008KT 03/M06 A3028 RMK A01 T00271055  RH  056%=      5-min Rain = 0
KGU1 152348Z 08010KT 03/M06 A3028 RMK A01 T00261055  RH  056%=      5-min Rain = 0
KGU1 152349Z 07010KT 03/M06 A3028 RMK A01 T00261055  RH  056%=      5-min Rain = 0
KGU1 152350Z 07007KT 03/M06 A3029 RMK A01 T00251055  RH  056%=      5-min Rain = 0
KGU1 152351Z 07007KT 02/M05 A3029 RMK A01 T00241054  RH  057%=      5-min Rain = 0
KGU1 152352Z 08006KT 02/M06 A3029 RMK A01 T00241055  RH  057%=      5-min Rain = 0
KGU1 152353Z 08009KT 02/M06 A3029 RMK A01 T00231055  RH  057%=      5-min Rain = 0
KGU1 152354Z 08009KT 02/M06 A3029 RMK A01 T00231055  RH  057%=      5-min Rain = 0
KGU1 152355Z 08010KT 02/M06 A3029 RMK A01 T00211055  RH  058%=      5-min Rain = 0
KGU1 152356Z 07007KT 02/M06 A3029 RMK A01 T00201055  RH  058%=      5-min Rain = 0
KGU1 152357Z 07009KT 02/M06 A3029 RMK A01 T00191055  RH  058%=      5-min Rain = 0
KGU1 152358Z 08009KT 02/M06 A3029 RMK A01 T00191055  RH  059%=      5-min Rain = 0
KGU1 152359Z 08010KT 02/M06 A3029 RMK A01 T00181055  RH  059%=      5-min Rain = 0
KGU1 160000Z 08009KT 02/M06 A3029 RMK A01 T00171055  RH  059%=      5-min Rain = 0
KGU1 160001Z 08009KT 02/M06 A3029 RMK A01 T00161055  RH  060%=      5-min Rain = 0
KGU1 160002Z 08009KT 02/M06 A3029 RMK A01 T00151055  RH  060%=      5-min Rain = 0
KGU1 160003Z 08009KT 02/M06 A3029 RMK A01 T00151055  RH  060%=      5-min Rain = 0
KGU1 160004Z 08007KT 01/M06 A3029 RMK A01 T00141055  RH  061%=      5-min Rain = 0
KGU1 160005Z 08009KT 01/M06 A3029 RMK A01 T00131055  RH  061%=      5-min Rain = 0
KGU1 160006Z 09009KT 01/M06 A3029 RMK A01 T00131056  RH  061%=      5-min Rain = 0
KGU1 160007Z 08008KT 01/M06 A3029 RMK A01 T00121056  RH  061%=      5-min Rain = 0
KGU1 160008Z 08007KT 01/M06 A3029 RMK A01 T00111056  RH  062%=      5-min Rain = 0
KGU1 160009Z 08007KT 01/M06 A3029 RMK A01 T00111056  RH  062%=      5-min Rain = 0
KGU1 160010Z 08008KT 01/M06 A303 RMK A01 T00101056  RH  062%=      5-min Rain = 0
KGU1 160011Z 08009KT 01/M06 A303 RMK A01 T00101056  RH  062%=      5-min Rain = 0
KGU1 160012Z 08007KT 01/M06 A303 RMK A01 T00091056  RH  062%=      5-min Rain = 0
KGU1 160013Z 08008KT 01/M06 A303 RMK A01 T00091056  RH  063%=      5-min Rain = 0
KGU1 160014Z 08008KT 01/M06 A303 RMK A01 T00081056  RH  063%=      5-min Rain = 0
KGU1 160015Z 08009KT 01/M06 A303 RMK A01 T00081056  RH  063%=      5-min Rain = 0
KGU1 160016Z 09009KT 01/M06 A303 RMK A01 T00071056  RH  063%=      5-min Rain = 0
KGU1 160017Z 08008KT 01/M06 A303 RMK A01 T00061056  RH  064%=      5-min Rain = 0
KGU1 160018Z 08008KT 01/M06 A303 RMK A01 T00061056  RH  064%=      5-min Rain = 0
KGU1 160019Z 07006KT 01/M06 A303 RMK A01 T00051056  RH  064%=      5-min Rain = 0
KGU1 160020Z 08009KT 01/M06 A303 RMK A01 T00051056  RH  064%=      5-min Rain = 0
KGU1 160021Z 08009KT 00/M06 A303 RMK A01 T00041057  RH  065%=      5-min Rain = 0
KGU1 160022Z 07008KT 00/M06 A303 RMK A01 T00031056  RH  065%=      5-min Rain = 0
KGU1 160023Z 07010KT 00/M06 A3031 RMK A01 T00021056  RH  065%=      5-min Rain = 0
KGU1 160024Z 07009KT 00/M06 A3031 RMK A01 T00021056  RH  066%=      5-min Rain = 0
KGU1 160025Z 07008KT 00/M06 A3031 RMK A01 T00011056  RH  066%=      5-min Rain = 0
KGU1 160026Z 06009KT 00/M06 A3031 RMK A01 T00011056  RH  066%=      5-min Rain = 0
KGU1 160027Z 07008KT 00/06 A3031 RMK A01 T00000-56  RH  067%=      5-min Rain = 0
KGU1 160028Z 07008KT M00/M06 A3031 RMK A01 T10011056  RH  067%=      5-min Rain = 0
KGU1 160029Z 07006KT M00/M06 A3031 RMK A01 T10011056  RH  067%=      5-min Rain = 0
KGU1 160030Z 07008KT M00/M06 A3031 RMK A01 T10011056  RH  067%=      5-min Rain = 0
KGU1 160031Z 07007KT M00/M06 A3031 RMK A01 T10021056  RH  067%=      5-min Rain = 0
KGU1 160032Z 07008KT M00/M06 A3031 RMK A01 T10021056  RH  067%=      5-min Rain = 0
KGU1 160033Z 07009KT M00/M06 A3031 RMK A01 T10021056  RH  068%=      5-min Rain = 0
KGU1 160034Z 08009KT M00/M06 A3031 RMK A01 T10031056  RH  068%=      5-min Rain = 0
KGU1 160035Z 07008KT M00/M06 A3031 RMK A01 T10031056  RH  068%=      5-min Rain = 0
KGU1 160036Z 07009KT M00/M06 A3031 RMK A01 T10041056  RH  068%=      5-min Rain = 0
KGU1 160037Z 08009KT M00/M06 A3031 RMK A01 T10041056  RH  069%=      5-min Rain = 0
KGU1 160038Z 07008KT M00/M06 A3031 RMK A01 T10041056  RH  069%=      5-min Rain = 0
KGU1 160039Z 07006KT M00/M06 A3031 RMK A01 T10041056  RH  069%=      5-min Rain = 0
KGU1 160040Z 07008KT M01/M06 A3031 RMK A01 T10051056  RH  069%=      5-min Rain = 0
KGU1 160041Z 07008KT M01/M06 A3032 RMK A01 T10051056  RH  069%=      5-min Rain = 0
KGU1 160042Z 07008KT M01/M06 A3032 RMK A01 T10061056  RH  070%=      5-min Rain = 0
KGU1 160043Z 08007KT M01/M06 A3032 RMK A01 T10061056  RH  070%=      5-min Rain = 0
KGU1 160044Z 07005KT M01/M06 A3032 RMK A01 T10071056  RH  070%=      5-min Rain = 0
KGU1 160045Z 06006KT M01/M06 A3032 RMK A01 T10071056  RH  070%=      5-min Rain = 0
KGU1 160046Z 07008KT M01/M06 A3032 RMK A01 T10071055  RH  071%=      5-min Rain = 0
KGU1 160047Z 06007KT M01/M06 A3032 RMK A01 T10071055  RH  071%=      5-min Rain = 0
KGU1 160048Z 07007KT M01/M06 A3032 RMK A01 T10081055  RH  071%=      5-min Rain = 0
KGU1 160049Z 07007KT M01/M06 A3032 RMK A01 T10081055  RH  071%=      5-min Rain = 0
KGU1 160050Z 07006KT M01/M06 A3032 RMK A01 T10081055  RH  071%=      5-min Rain = 0
KGU1 160051Z 07008KT M01/M06 A3032 RMK A01 T10081055  RH  072%=      5-min Rain = 0
KGU1 160052Z 06006KT M01/M06 A3033 RMK A01 T10091055  RH  072%=      5-min Rain = 0
KGU1 160053Z 06004KT M01/M06 A3033 RMK A01 T10091055  RH  072%=      5-min Rain = 0
KGU1 160054Z 07006KT M01/M06 A3033 RMK A01 T10091055  RH  072%=      5-min Rain = 0
KGU1 160055Z 06007KT M01/M06 A3033 RMK A01 T10091055  RH  072%=      5-min Rain = 0
KGU1 160056Z 06005KT M01/M06 A3033 RMK A01 T10101055  RH  072%=      5-min Rain = 0
KGU1 160057Z 06005KT M01/M06 A3033 RMK A01 T10101055  RH  072%=      5-min Rain = 0
KGU1 160058Z 05005KT M01/M06 A3033 RMK A01 T10101055  RH  072%=      5-min Rain = 0
KGU1 160059Z 05006KT M01/M06 A3033 RMK A01 T10101055  RH  073%=      5-min Rain = 0
KGU1 160100Z 05005KT M01/M06 A3033 RMK A01 T10111055  RH  073%=      5-min Rain = 0
KGU1 160101Z 05005KT M01/M06 A3033 RMK A01 T10111055  RH  073%=      5-min Rain = 0
KGU1 160102Z 06005KT M01/M06 A3033 RMK A01 T10111055  RH  073%=      5-min Rain = 0
KGU1 160103Z 06006KT M01/M06 A3033 RMK A01 T10111055  RH  073%=      5-min Rain = 0
KGU1 160104Z 06005KT M01/M06 A3034 RMK A01 T10111055  RH  073%=      5-min Rain = 0
KGU1 160105Z 05005KT M01/M06 A3034 RMK A01 T10111055  RH  073%=      5-min Rain = 0
KGU1 160106Z 06005KT M01/M06 A3034 RMK A01 T10111055  RH  073%=      5-min Rain = 0
KGU1 160107Z 06006KT M01/M05 A3034 RMK A01 T10121054  RH  073%=      5-min Rain = 0
KGU1 160108Z 07006KT M01/M05 A3034 RMK A01 T10111054  RH  074%=      5-min Rain = 0
KGU1 160109Z 06005KT M01/M05 A3034 RMK A01 T10111054  RH  074%=      5-min Rain = 0
KGU1 160110Z 08005KT M01/M05 A3034 RMK A01 T10111054  RH  074%=      5-min Rain = 0
KGU1 160111Z 08007KT M01/M05 A3034 RMK A01 T10121054  RH  074%=      5-min Rain = 0
KGU1 160112Z 09007KT M01/M05 A3034 RMK A01 T10121054  RH  074%=      5-min Rain = 0
KGU1 160113Z 07006KT M01/M05 A3034 RMK A01 T10121054  RH  074%=      5-min Rain = 0
KGU1 160114Z 08008KT M01/M05 A3034 RMK A01 T10121054  RH  074%=      5-min Rain = 0
KGU1 160115Z 08009KT M01/M05 A3034 RMK A01 T10131054  RH  074%=      5-min Rain = 0
KGU1 160116Z 08008KT M01/M05 A3034 RMK A01 T10131054  RH  074%=      5-min Rain = 0
KGU1 160117Z 07007KT M01/M05 A3034 RMK A01 T10131054  RH  074%=      5-min Rain = 0
KGU1 160118Z 08008KT M01/M05 A3034 RMK A01 T10131054  RH  075%=      5-min Rain = 0
KGU1 160119Z 08010KT M01/M05 A3034 RMK A01 T10131054  RH  075%=      5-min Rain = 0
KGU1 160120Z 07010KT M01/M05 A3034 RMK A01 T10131054  RH  075%=      5-min Rain = 0
KGU1 160121Z 06009KT M01/M05 A3034 RMK A01 T10131054  RH  075%=      5-min Rain = 0
KGU1 160122Z 06009KT M01/M05 A3034 RMK A01 T10131054  RH  075%=      5-min Rain = 0
KGU1 160123Z 06007KT M01/M05 A3034 RMK A01 T10131054  RH  075%=      5-min Rain = 0
KGU1 160124Z 06008KT M01/M05 A3034 RMK A01 T10141054  RH  075%=      5-min Rain = 0
KGU1 160125Z 06007KT M01/M05 A3034 RMK A01 T10141054  RH  075%=      5-min Rain = 0
KGU1 160126Z 06006KT M01/M05 A3034 RMK A01 T10141054  RH  075%=      5-min Rain = 0
KGU1 160127Z 06008KT M01/M05 A3034 RMK A01 T10141054  RH  075%=      5-min Rain = 0
KGU1 160128Z 06008KT M01/M05 A3034 RMK A01 T10141053  RH  075%=      5-min Rain = 0
KGU1 160129Z 07007KT M01/M05 A3034 RMK A01 T10141053  RH  075%=      5-min Rain = 0
KGU1 160130Z 07007KT M01/M05 A3034 RMK A01 T10141053  RH  076%=      5-min Rain = 0
KGU1 160131Z 07009KT M01/M05 A3034 RMK A01 T10141053  RH  076%=      5-min Rain = 0
KGU1 160132Z 08008KT M02/M05 A3034 RMK A01 T10151053  RH  076%=      5-min Rain = 0
KGU1 160133Z 08009KT M02/M05 A3034 RMK A01 T10151053  RH  076%=      5-min Rain = 0
KGU1 160134Z 08008KT M02/M05 A3034 RMK A01 T10151053  RH  076%=      5-min Rain = 0
KGU1 160135Z 07009G15KT M02/M05 A3034 RMK A01 T10151053  RH  076%=      5-min Rain = 0
KGU1 160136Z 08010KT M02/M05 A3034 RMK A01 T10151053  RH  076%=      5-min Rain = 0
KGU1 160137Z 08012KT M02/M05 A3034 RMK A01 T10151052  RH  077%=      5-min Rain = 0
KGU1 160138Z 08012KT M02/M05 A3034 RMK A01 T10151052  RH  077%=      5-min Rain = 0
KGU1 160139Z 08011KT M02/M05 A3034 RMK A01 T10151052  RH  077%=      5-min Rain = 0
KGU1 160140Z 08011KT M02/M05 A3034 RMK A01 T10151052  RH  077%=      5-min Rain = 0
KGU1 160141Z 08011KT M02/M05 A3035 RMK A01 T10151052  RH  077%=      5-min Rain = 0
KGU1 160142Z 08010KT M02/M05 A3035 RMK A01 T10161052  RH  077%=      5-min Rain = 0
KGU1 160143Z 08009KT M02/M05 A3035 RMK A01 T10161052  RH  077%=      5-min Rain = 0
KGU1 160144Z 08011KT M02/M05 A3035 RMK A01 T10171052  RH  078%=      5-min Rain = 0
KGU1 160145Z 08012G18KT M02/M05 A3035 RMK A01 T10181052  RH  078%=      5-min Rain = 0
KGU1 160146Z 08014KT M02/M05 A3035 RMK A01 T10181052  RH  079%=      5-min Rain = 0
KGU1 160147Z 08013KT M02/M05 A3035 RMK A01 T10191052  RH  079%=      5-min Rain = 0
KGU1 160148Z 08011KT M02/M05 A3035 RMK A01 T10201052  RH  079%=      5-min Rain = 0
KGU1 160149Z 08011KT M02/M05 A3036 RMK A01 T10201052  RH  079%=      5-min Rain = 0
KGU1 160150Z 08012KT M02/M05 A3036 RMK A01 T10201052  RH  080%=      5-min Rain = 0
KGU1 160151Z 08011KT M02/M05 A3036 RMK A01 T10211052  RH  080%=      5-min Rain = 0
KGU1 160152Z 08013KT M02/M05 A3036 RMK A01 T10211052  RH  080%=      5-min Rain = 0
KGU1 160153Z 08011KT M02/M05 A3036 RMK A01 T10211052  RH  080%=      5-min Rain = 0
KGU1 160154Z 08011KT M02/M05 A3036 RMK A01 T10211052  RH  080%=      5-min Rain = 0
KGU1 160155Z 08012KT M02/M05 A3036 RMK A01 T10211052  RH  080%=      5-min Rain = 0
KGU1 160156Z 08013KT M02/M05 A3036 RMK A01 T10211052  RH  080%=      5-min Rain = 0
KGU1 160157Z 08012KT M02/M05 A3036 RMK A01 T10211052  RH  080%=      5-min Rain = 0
KGU1 160158Z 07009G14KT M02/M05 A3036 RMK A01 T10221052  RH  080%=      5-min Rain = 0
KGU1 160159Z 07012KT M02/M05 A3036 RMK A01 T10221052  RH  080%=      5-min Rain = 0
KGU1 160200Z 08012KT M02/M05 A3036 RMK A01 T10221052  RH  081%=      5-min Rain = 0
KGU1 160201Z 08011KT M02/M05 A3036 RMK A01 T10221052  RH  081%=      5-min Rain = 0
KGU1 160202Z 07014G19KT M02/M05 A3036 RMK A01 T10221052  RH  081%=      5-min Rain = 0
KGU1 160203Z 07013KT M02/M05 A3036 RMK A01 T10231052  RH  081%=      5-min Rain = 0
KGU1 160204Z 07012G18KT M02/M05 A3036 RMK A01 T10231052  RH  082%=      5-min Rain = 0
KGU1 160205Z 07011KT M02/M05 A3037 RMK A01 T10241052  RH  082%=      5-min Rain = 0
KGU1 160206Z 07012KT M02/M05 A3037 RMK A01 T10241052  RH  082%=      5-min Rain = 0
KGU1 160207Z 07013KT M03/M05 A3037 RMK A01 T10251052  RH  082%=      5-min Rain = 0
KGU1 160208Z 07011KT M03/M05 A3037 RMK A01 T10251052  RH  082%=      5-min Rain = 0
KGU1 160209Z 07011KT M03/M05 A3037 RMK A01 T10251052  RH  083%=      5-min Rain = 0
KGU1 160210Z 07010G15KT M03/M05 A3037 RMK A01 T10261052  RH  083%=      5-min Rain = 0
KGU1 160211Z 08011KT M03/M05 A3037 RMK A01 T10251052  RH  083%=      5-min Rain = 0
KGU1 160212Z 07012KT M03/M05 A3037 RMK A01 T10261052  RH  083%=      5-min Rain = 0
KGU1 160213Z 07011KT M03/M05 A3037 RMK A01 T10261052  RH  083%=      5-min Rain = 0
KGU1 160214Z 07011KT M03/M05 A3037 RMK A01 T10261052  RH  083%=      5-min Rain = 0
KGU1 160215Z 07010KT M03/M05 A3037 RMK A01 T10261052  RH  083%=      5-min Rain = 0
KGU1 160216Z 08011KT M03/M05 A3037 RMK A01 T10261052  RH  083%=      5-min Rain = 0
KGU1 160217Z 07010KT M03/M05 A3037 RMK A01 T10261052  RH  083%=      5-min Rain = 0
KGU1 160218Z 06013KT M03/M05 A3037 RMK A01 T10261052  RH  083%=      5-min Rain = 0
KGU1 160219Z 07012KT M03/M05 A3038 RMK A01 T10261052  RH  083%=      5-min Rain = 0
KGU1 160220Z 07011KT M03/M05 A3038 RMK A01 T10261052  RH  083%=      5-min Rain = 0
KGU1 160221Z 08014KT M03/M05 A3038 RMK A01 T10261053  RH  083%=      5-min Rain = 0
KGU1 160222Z 07013KT M03/M05 A3038 RMK A01 T10251052  RH  082%=      5-min Rain = 0
KGU1 160223Z 07011KT M03/M05 A3038 RMK A01 T10251053  RH  082%=      5-min Rain = 0
KGU1 160224Z 07014KT M03/M05 A3038 RMK A01 T10251053  RH  082%=      5-min Rain = 0
KGU1 160225Z 07013KT M03/M05 A3038 RMK A01 T10251053  RH  082%=      5-min Rain = 0
KGU1 160226Z 07013KT M03/M05 A3038 RMK A01 T10251053  RH  082%=      5-min Rain = 0
KGU1 160227Z 07013KT M03/M05 A3038 RMK A01 T10261053  RH  082%=      5-min Rain = 0
KGU1 160228Z 07014KT M03/M05 A3038 RMK A01 T10261053  RH  082%=      5-min Rain = 0
KGU1 160229Z 06012KT M03/M05 A3039 RMK A01 T10261053  RH  082%=      5-min Rain = 0
KGU1 160230Z 07013KT M03/M05 A3039 RMK A01 T10261053  RH  083%=      5-min Rain = 0
KGU1 160231Z 08014KT M03/M05 A3039 RMK A01 T10261053  RH  083%=      5-min Rain = 0
KGU1 160232Z 07011KT M03/M05 A3039 RMK A01 T10261053  RH  083%=      5-min Rain = 0
KGU1 160233Z 07014KT M03/M05 A3039 RMK A01 T10261053  RH  083%=      5-min Rain = 0
KGU1 160234Z 07016KT M03/M05 A3039 RMK A01 T10271053  RH  083%=      5-min Rain = 0
KGU1 160235Z 07013G18KT M03/M05 A3039 RMK A01 T10271053  RH  083%=      5-min Rain = 0
KGU1 160236Z 07013KT M03/M05 A3039 RMK A01 T10271053  RH  083%=      5-min Rain = 0
KGU1 160237Z 07015KT M03/M05 A3039 RMK A01 T10271053  RH  083%=      5-min Rain = 0
KGU1 160238Z 07012G17KT M03/M05 A3039 RMK A01 T10271053  RH  083%=      5-min Rain = 0
KGU1 160239Z 06008KT M03/M05 A3039 RMK A01 T10261053  RH  083%=      5-min Rain = 0
KGU1 160240Z 07011G16KT M03/M05 A3039 RMK A01 T10261053  RH  083%=      5-min Rain = 0
KGU1 160241Z 08014KT M03/M05 A3039 RMK A01 T10261053  RH  083%=      5-min Rain = 0
KGU1 160242Z 07014KT M03/M05 A3039 RMK A01 T10261053  RH  083%=      5-min Rain = 0
KGU1 160243Z 07014KT M03/M05 A3039 RMK A01 T10271053  RH  083%=      5-min Rain = 0
KGU1 160244Z 07012KT M03/M05 A3039 RMK A01 T10271053  RH  083%=      5-min Rain = 0
KGU1 160245Z 06012KT M03/M05 A3039 RMK A01 T10271053  RH  083%=      5-min Rain = 0
KGU1 160246Z 07012G17KT M03/M05 A3039 RMK A01 T10261053  RH  083%=      5-min Rain = 0
KGU1 160247Z 07013KT M03/M05 A3039 RMK A01 T10261053  RH  083%=      5-min Rain = 0
KGU1 160248Z 07013KT M03/M05 A304 RMK A01 T10261053  RH  083%=      5-min Rain = 0
KGU1 160249Z 07012G20KT M03/M05 A304 RMK A01 T10271053  RH  083%=      5-min Rain = 0
KGU1 160250Z 06014KT M03/M05 A304 RMK A01 T10271053  RH  083%=      5-min Rain = 0
KGU1 160251Z 06011KT M03/M05 A304 RMK A01 T10271053  RH  083%=      5-min Rain = 0
KGU1 160252Z 07013KT M03/M05 A304 RMK A01 T10271053  RH  083%=      5-min Rain = 0
KGU1 160253Z 07013G19KT M03/M05 A304 RMK A01 T10271053  RH  083%=      5-min Rain = 0
KGU1 160254Z 07014KT M03/M05 A304 RMK A01 T10271053  RH  083%=      5-min Rain = 0
KGU1 160255Z 07014KT M03/M05 A304 RMK A01 T10271053  RH  083%=      5-min Rain = 0
KGU1 160256Z 07013KT M03/M05 A304 RMK A01 T10281053  RH  084%=      5-min Rain = 0
KGU1 160257Z 06013KT M03/M05 A304 RMK A01 T10281053  RH  084%=      5-min Rain = 0
KGU1 160258Z 06011G17KT M03/M05 A304 RMK A01 T10281053  RH  084%=      5-min Rain = 0
KGU1 160259Z 07014KT M03/M05 A304 RMK A01 T10281053  RH  084%=      5-min Rain = 0
KGU1 160300Z 07013KT M03/M05 A304 RMK A01 T10281053  RH  084%=      5-min Rain = 0
KGU1 160301Z 07012KT M03/M05 A304 RMK A01 T10281053  RH  084%=      5-min Rain = 0
KGU1 160302Z 07012G17KT M03/M05 A304 RMK A01 T10281053  RH  084%=      5-min Rain = 0
KGU1 160303Z 07014G19KT M03/M05 A304 RMK A01 T10281053  RH  084%=      5-min Rain = 0
KGU1 160304Z 07013G18KT M03/M05 A304 RMK A01 T10281053  RH  084%=      5-min Rain = 0
KGU1 160305Z 06017KT M03/M05 A304 RMK A01 T10281053  RH  084%=      5-min Rain = 0
KGU1 160306Z 06012KT M03/M05 A304 RMK A01 T10281053  RH  084%=      5-min Rain = 0
KGU1 160307Z 07014KT M03/M05 A304 RMK A01 T10281052  RH  084%=      5-min Rain = 0
KGU1 160308Z 07013G20KT M03/M05 A304 RMK A01 T10281053  RH  084%=      5-min Rain = 0
KGU1 160309Z 06014KT M03/M05 A3041 RMK A01 T10281052  RH  084%=      5-min Rain = 0
KGU1 160310Z 07016G22KT M03/M05 A3041 RMK A01 T10291053  RH  085%=      5-min Rain = 0
KGU1 160311Z 07014G19KT M03/M05 A3041 RMK A01 T10291052  RH  085%=      5-min Rain = 0
KGU1 160312Z 06014KT M03/M05 A3041 RMK A01 T10291052  RH  085%=      5-min Rain = 0
KGU1 160313Z 07015KT M03/M05 A3041 RMK A01 T10291052  RH  085%=      5-min Rain = 0
KGU1 160314Z 07015KT M03/M05 A3041 RMK A01 T10291052  RH  085%=      5-min Rain = 0
KGU1 160315Z 07012KT M03/M05 A3041 RMK A01 T10291051  RH  086%=      5-min Rain = 0
KGU1 160316Z 07013KT M03/M05 A3041 RMK A01 T10291051  RH  086%=      5-min Rain = 0
KGU1 160317Z 07012KT M03/M05 A3041 RMK A01 T10301051  RH  086%=      5-min Rain = 0
KGU1 160318Z 07014G19KT M03/M05 A3041 RMK A01 T10301050  RH  087%=      5-min Rain = 0
KGU1 160319Z 07013KT M03/M05 A3041 RMK A01 T10311050  RH  087%=      5-min Rain = 0
KGU1 160320Z 07013KT M03/M05 A3041 RMK A01 T10311050  RH  088%=      5-min Rain = 0
KGU1 160321Z 06014KT M03/M05 A3042 RMK A01 T10311050  RH  088%=      5-min Rain = 0
KGU1 160322Z 06010KT M03/M05 A3042 RMK A01 T10311050  RH  088%=      5-min Rain = 0
KGU1 160323Z 07013G21KT M03/M05 A3041 RMK A01 T10311050  RH  087%=      5-min Rain = 0
KGU1 160324Z 07014KT M03/M05 A3041 RMK A01 T10311051  RH  087%=      5-min Rain = 0
KGU1 160325Z 07013G18KT M03/M05 A3042 RMK A01 T10311051  RH  087%=      5-min Rain = 0
KGU1 160326Z 07014KT M03/M05 A3042 RMK A01 T10311051  RH  087%=      5-min Rain = 0
KGU1 160327Z 07014G19KT M03/M05 A3042 RMK A01 T10311051  RH  088%=      5-min Rain = 0
KGU1 160328Z 07014G19KT M03/M05 A3042 RMK A01 T10311051  RH  087%=      5-min Rain = 0
KGU1 160329Z 07014G19KT M03/M05 A3042 RMK A01 T10311051  RH  087%=      5-min Rain = 0
KGU1 160330Z 07016G21KT M03/M05 A3042 RMK A01 T10321051  RH  087%=      5-min Rain = 0
KGU1 160331Z 07016G22KT M03/M05 A3042 RMK A01 T10331051  RH  089%=      5-min Rain = 0
KGU1 160332Z 07017G22KT M04/M05 A3042 RMK A01 T10361051  RH  090%=      5-min Rain = 0
KGU1 160333Z 07017G23KT M04/M05 A3042 RMK A01 T10391051  RH  092%=      5-min Rain = 0
KGU1 160334Z 07016KT M04/M05 A3042 RMK A01 T10411052  RH  093%=      5-min Rain = 0
KGU1 160335Z 07016KT M04/M05 A3042 RMK A01 T10421051  RH  094%=      5-min Rain = 0
KGU1 160336Z 07015KT M04/M05 A3042 RMK A01 T10421051  RH  095%=      5-min Rain = 0
KGU1 160337Z 08015G21KT M04/M05 A3042 RMK A01 T10431051  RH  095%=      5-min Rain = 0
KGU1 160338Z 07014G19KT M04/M05 A3042 RMK A01 T10431051  RH  096%=      5-min Rain = 0
KGU1 160339Z 07014KT M04/M05 A3042 RMK A01 T10441051  RH  096%=      5-min Rain = 0
KGU1 160340Z 07016KT M04/M05 A3042 RMK A01 T10441051  RH  096%=      5-min Rain = 0
KGU1 160341Z 07016KT M04/M05 A3042 RMK A01 T10441051  RH  096%=      5-min Rain = 0
KGU1 160342Z 07017KT M05/M05 A3043 RMK A01 T10451052  RH  096%=      5-min Rain = 0
KGU1 160343Z 06013G18KT M05/M05 A3043 RMK A01 T10461052  RH  096%=      5-min Rain = 0
KGU1 160344Z 07014KT M05/M05 A3043 RMK A01 T10461052  RH  096%=      5-min Rain = 0
KGU1 160345Z 06015KT M05/M05 A3043 RMK A01 T10471053  RH  096%=      5-min Rain = 0
KGU1 160346Z 06013G18KT M05/M05 A3043 RMK A01 T10471053  RH  096%=      5-min Rain = 0
KGU1 160347Z 06016KT M05/M05 A3043 RMK A01 T10481054  RH  096%=      5-min Rain = 0
KGU1 160348Z 06014G19KT M05/M06 A3043 RMK A01 T10481055  RH  096%=      5-min Rain = 0
KGU1 160349Z 06016KT M05/M06 A3043 RMK A01 T10481055  RH  096%=      5-min Rain = 0
KGU1 160350Z 06016G21KT M05/M06 A3043 RMK A01 T10491056  RH  096%=      5-min Rain = 0
KGU1 160351Z 07011G16KT M05/M06 A3043 RMK A01 T10491056  RH  096%=      5-min Rain = 0
KGU1 160352Z 05014KT M05/M06 A3043 RMK A01 T10491056  RH  096%=      5-min Rain = 0
KGU1 160353Z 05015KT M05/M06 A3044 RMK A01 T10491056  RH  096%=      5-min Rain = 0
KGU1 160354Z 05017KT M05/M06 A3044 RMK A01 T10501056  RH  096%=      5-min Rain = 0
KGU1 160355Z 05018KT M05/M06 A3044 RMK A01 T10501057  RH  096%=      5-min Rain = 0
KGU1 160356Z 04013KT M05/M06 A3044 RMK A01 T10501057  RH  096%=      5-min Rain = 0
KGU1 160357Z 05013G19KT M05/M06 A3044 RMK A01 T10511057  RH  096%=      5-min Rain = 0
KGU1 160358Z 05016KT M05/M06 A3044 RMK A01 T10511057  RH  096%=      5-min Rain = 0
KGU1 160359Z 05014KT M05/M06 A3044 RMK A01 T10521058  RH  096%=      5-min Rain = 0
KGU1 160400Z 06013G19KT M05/M06 A3044 RMK A01 T10521059  RH  096%=      5-min Rain = 0
KGU1 160401Z 05016KT M05/M06 A3044 RMK A01 T10521059  RH  096%=      5-min Rain = 0
KGU1 160402Z 05015KT M05/M06 A3044 RMK A01 T10531060  RH  096%=      5-min Rain = 0
KGU1 160403Z 05014KT M05/M06 A3044 RMK A01 T10531061  RH  096%=      5-min Rain = 0
KGU1 160404Z 06016KT M05/M06 A3044 RMK A01 T10541061  RH  096%=      5-min Rain = 0
KGU1 160405Z 05014G20KT M05/M06 A3044 RMK A01 T10541061  RH  096%=      5-min Rain = 0
KGU1 160406Z 06015KT M05/M06 A3044 RMK A01 T10541061  RH  096%=      5-min Rain = 0
KGU1 160407Z 05014KT M06/M06 A3044 RMK A01 T10551062  RH  096%=      5-min Rain = 0
KGU1 160408Z 05013KT M06/M06 A3044 RMK A01 T10551062  RH  096%=      5-min Rain = 0
KGU1 160409Z 05012KT M05/M06 A3044 RMK A01 T10541061  RH  096%=      5-min Rain = 0
KGU1 160410Z 05013KT M05/M06 A3044 RMK A01 T10541061  RH  096%=      5-min Rain = 0
KGU1 160411Z 05015KT M06/M06 A3044 RMK A01 T10551061  RH  096%=      5-min Rain = 0
KGU1 160412Z 05014KT M06/M06 A3044 RMK A01 T10551062  RH  096%=      5-min Rain = 0
KGU1 160413Z 05012KT M06/M06 A3044 RMK A01 T10551062  RH  096%=      5-min Rain = 0
KGU1 160414Z 05010KT M06/M06 A3044 RMK A01 T10551062  RH  096%=      5-min Rain = 0
KGU1 160415Z 06013KT M06/M06 A3045 RMK A01 T10551062  RH  096%=      5-min Rain = 0
KGU1 160416Z 05016KT M06/M06 A3045 RMK A01 T10561063  RH  096%=      5-min Rain = 0
KGU1 160417Z 05015KT M06/M06 A3045 RMK A01 T10571064  RH  096%=      5-min Rain = 0
KGU1 160418Z 06012KT M06/M06 A3045 RMK A01 T10571064  RH  096%=      5-min Rain = 0
KGU1 160419Z 06014G20KT M06/M07 A3045 RMK A01 T10571065  RH  096%=      5-min Rain = 0
KGU1 160420Z 06012KT M06/M07 A3045 RMK A01 T10581065  RH  096%=      5-min Rain = 0
KGU1 160421Z 06013KT M06/M07 A3045 RMK A01 T10581065  RH  096%=      5-min Rain = 0
KGU1 160422Z 06012KT M06/M07 A3045 RMK A01 T10581065  RH  096%=      5-min Rain = 0
KGU1 160423Z 06011KT M06/M07 A3045 RMK A01 T10581065  RH  096%=      5-min Rain = 0
KGU1 160424Z 05014KT M06/M07 A3045 RMK A01 T10581065  RH  096%=      5-min Rain = 0
KGU1 160425Z 05014KT M06/M07 A3045 RMK A01 T10591066  RH  096%=      5-min Rain = 0
KGU1 160426Z 06012KT M06/M07 A3045 RMK A01 T10591066  RH  096%=      5-min Rain = 0
KGU1 160427Z 06011KT M06/M07 A3045 RMK A01 T10581065  RH  096%=      5-min Rain = 0
KGU1 160428Z 05010G15KT M06/M07 A3045 RMK A01 T10581065  RH  096%=      5-min Rain = 0
KGU1 160429Z 05010KT M06/M07 A3046 RMK A01 T10581065  RH  096%=      5-min Rain = 0
KGU1 160430Z 05009KT M06/M07 A3045 RMK A01 T10581065  RH  096%=      5-min Rain = 0
KGU1 160431Z 05014KT M06/M07 A3046 RMK A01 T10581065  RH  096%=      5-min Rain = 0
KGU1 160432Z 05013KT M06/M07 A3046 RMK A01 T10591066  RH  096%=      5-min Rain = 0
KGU1 160433Z 05013KT M06/M07 A3046 RMK A01 T10591067  RH  096%=      5-min Rain = 0
KGU1 160434Z 05012KT M06/M07 A3046 RMK A01 T10591067  RH  096%=      5-min Rain = 0
KGU1 160435Z 05013KT M06/M07 A3046 RMK A01 T10601067  RH  096%=      5-min Rain = 0
KGU1 160436Z 05014KT M06/M07 A3045 RMK A01 T10601068  RH  095%=      5-min Rain = 0
KGU1 160437Z 06014KT M06/M07 A3046 RMK A01 T10601068  RH  095%=      5-min Rain = 0
KGU1 160438Z 05012G17KT M06/M07 A3046 RMK A01 T10611069  RH  095%=      5-min Rain = 0
KGU1 160439Z 06011G16KT M06/M07 A3046 RMK A01 T10611069  RH  095%=      5-min Rain = 0
KGU1 160440Z 05013KT M06/M07 A3046 RMK A01 T10611069  RH  096%=      5-min Rain = 0
KGU1 160441Z 06011KT M06/M07 A3046 RMK A01 T10611069  RH  095%=      5-min Rain = 0
KGU1 160442Z 06012KT M06/M07 A3046 RMK A01 T10611069  RH  096%=      5-min Rain = 0
KGU1 160443Z 06011KT M06/M07 A3046 RMK A01 T10611069  RH  096%=      5-min Rain = 0
KGU1 160444Z 05010KT M06/M07 A3046 RMK A01 T10611069  RH  096%=      5-min Rain = 0
KGU1 160445Z 05012KT M06/M07 A3046 RMK A01 T10611068  RH  096%=      5-min Rain = 0
KGU1 160446Z 05011KT M06/M07 A3046 RMK A01 T10611068  RH  096%=      5-min Rain = 0
KGU1 160447Z 06013KT M06/M07 A3046 RMK A01 T10611068  RH  096%=      5-min Rain = 0
KGU1 160448Z 06012KT M06/M07 A3046 RMK A01 T10621069  RH  095%=      5-min Rain = 0
KGU1 160449Z 05012KT M06/M07 A3046 RMK A01 T10621070  RH  095%=      5-min Rain = 0
KGU1 160450Z 05012KT M06/M07 A3046 RMK A01 T10621070  RH  095%=      5-min Rain = 0
KGU1 160451Z 06013KT M06/M07 A3046 RMK A01 T10621070  RH  095%=      5-min Rain = 0
KGU1 160452Z 05015KT M06/M07 A3046 RMK A01 T10631071  RH  095%=      5-min Rain = 0
KGU1 160453Z 06013KT M06/M07 A3046 RMK A01 T10631071  RH  095%=      5-min Rain = 0
KGU1 160454Z 05010KT M06/M07 A3046 RMK A01 T10631071  RH  095%=      5-min Rain = 0
KGU1 160455Z 06012KT M06/M07 A3046 RMK A01 T10631071  RH  095%=      5-min Rain = 0
KGU1 160456Z 05013KT M06/M07 A3047 RMK A01 T10631071  RH  095%=      5-min Rain = 0
KGU1 160457Z 06011KT M06/M07 A3047 RMK A01 T10641072  RH  095%=      5-min Rain = 0
KGU1 160458Z 07011KT M06/M07 A3047 RMK A01 T10641072  RH  095%=      5-min Rain = 0
KGU1 160459Z 07013KT M07/M07 A3046 RMK A01 T10651073  RH  095%=      5-min Rain = 0
KGU1 160500Z 05011KT M07/M07 A3047 RMK A01 T10651074  RH  095%=      5-min Rain = 0
KGU1 160501Z 05013KT M07/M07 A3047 RMK A01 T10651073  RH  095%=      5-min Rain = 0
KGU1 160502Z 05015KT M07/M07 A3047 RMK A01 T10661074  RH  095%=      5-min Rain = 0
KGU1 160503Z 05011KT M07/M08 A3047 RMK A01 T10661075  RH  095%=      5-min Rain = 0
KGU1 160504Z 05014KT M07/M08 A3047 RMK A01 T10661075  RH  095%=      5-min Rain = 0
KGU1 160505Z 05013G18KT M07/M08 A3047 RMK A01 T10661075  RH  095%=      5-min Rain = 0
KGU1 160506Z 05015KT M07/M07 A3047 RMK A01 T10661074  RH  095%=      5-min Rain = 0
KGU1 160507Z 05014KT M07/M08 A3047 RMK A01 T10671075  RH  095%=      5-min Rain = 0
KGU1 160508Z 05013KT M07/M08 A3047 RMK A01 T10671075  RH  095%=      5-min Rain = 0
KGU1 160509Z 05013KT M07/M08 A3047 RMK A01 T10671075  RH  095%=      5-min Rain = 0
KGU1 160510Z 05014KT M07/M08 A3047 RMK A01 T10671075  RH  095%=      5-min Rain = 0
KGU1 160511Z 05011KT M07/M08 A3047 RMK A01 T10671075  RH  095%=      5-min Rain = 0
KGU1 160512Z 05013KT M07/M08 A3047 RMK A01 T10671075  RH  095%=      5-min Rain = 0
KGU1 160513Z 05014KT M07/M08 A3047 RMK A01 T10671075  RH  095%=      5-min Rain = 0
KGU1 160514Z 05014KT M07/M08 A3047 RMK A01 T10671075  RH  095%=      5-min Rain = 0
KGU1 160515Z 05015KT M07/M08 A3047 RMK A01 T10671076  RH  095%=      5-min Rain = 0
KGU1 160516Z 04012KT M07/M08 A3047 RMK A01 T10671075  RH  095%=      5-min Rain = 0
KGU1 160517Z 05011KT M07/M08 A3047 RMK A01 T10671075  RH  095%=      5-min Rain = 0
KGU1 160518Z 04012KT M07/M08 A3047 RMK A01 T10671075  RH  095%=      5-min Rain = 0
KGU1 160519Z 04013KT M07/M08 A3047 RMK A01 T10671075  RH  095%=      5-min Rain = 0
KGU1 160520Z 04014KT M07/M08 A3047 RMK A01 T10671075  RH  095%=      5-min Rain = 0
KGU1 160521Z 05013KT M07/M08 A3047 RMK A01 T10671075  RH  095%=      5-min Rain = 0
KGU1 160522Z 05012KT M07/M08 A3047 RMK A01 T10671075  RH  095%=      5-min Rain = 0
KGU1 160523Z 05013KT M07/M08 A3047 RMK A01 T10671075  RH  095%=      5-min Rain = 0
KGU1 160524Z 05012KT M07/M08 A3047 RMK A01 T10671076  RH  095%=      5-min Rain = 0
KGU1 160525Z 05013KT M07/M08 A3048 RMK A01 T10681076  RH  095%=      5-min Rain = 0
KGU1 160526Z 04013KT M07/M08 A3048 RMK A01 T10681077  RH  095%=      5-min Rain = 0
KGU1 160527Z 04011KT M07/M08 A3048 RMK A01 T10681077  RH  095%=      5-min Rain = 0
KGU1 160528Z 04009KT M07/M08 A3048 RMK A01 T10681076  RH  095%=      5-min Rain = 0
KGU1 160529Z 04012KT M07/M08 A3048 RMK A01 T10671076  RH  095%=      5-min Rain = 0
KGU1 160530Z 04013KT M07/M08 A3048 RMK A01 T10681076  RH  095%=      5-min Rain = 0
KGU1 160531Z 04013KT M07/M08 A3048 RMK A01 T10681077  RH  095%=      5-min Rain = 0
KGU1 160532Z 04012KT M07/M08 A3048 RMK A01 T10681076  RH  095%=      5-min Rain = 0
KGU1 160533Z 04011KT M07/M08 A3048 RMK A01 T10681076  RH  095%=      5-min Rain = 0
KGU1 160534Z 04011KT M07/M08 A3048 RMK A01 T10671075  RH  095%=      5-min Rain = 0
KGU1 160535Z 04012KT M07/M08 A3048 RMK A01 T10671075  RH  095%=      5-min Rain = 0
KGU1 160536Z 05012KT M07/M08 A3048 RMK A01 T10671075  RH  095%=      5-min Rain = 0
KGU1 160537Z 05012KT M07/M08 A3048 RMK A01 T10671076  RH  095%=      5-min Rain = 0
KGU1 160538Z 04013KT M07/M08 A3048 RMK A01 T10681076  RH  095%=      5-min Rain = 0
KGU1 160539Z 05012KT M07/M08 A3048 RMK A01 T10671076  RH  095%=      5-min Rain = 0
KGU1 160540Z 05012KT M07/M08 A3048 RMK A01 T10681076  RH  095%=      5-min Rain = 0
KGU1 160541Z 05013KT M07/M08 A3048 RMK A01 T10671076  RH  095%=      5-min Rain = 0
KGU1 160542Z 05013G19KT M07/M08 A3047 RMK A01 T10671076  RH  095%=      5-min Rain = 0
KGU1 160543Z 05013KT M07/M08 A3047 RMK A01 T10671076  RH  095%=      5-min Rain = 0
KGU1 160544Z 05012KT M07/M08 A3048 RMK A01 T10671076  RH  095%=      5-min Rain = 0
KGU1 160545Z 05014KT M07/M08 A3048 RMK A01 T10681077  RH  094%=      5-min Rain = 0
KGU1 160546Z 05013KT M07/M08 A3048 RMK A01 T10681077  RH  094%=      5-min Rain = 0
KGU1 160547Z 05012KT M07/M08 A3048 RMK A01 T10671077  RH  094%=      5-min Rain = 0
KGU1 160548Z 04012KT M07/M08 A3047 RMK A01 T10671077  RH  094%=      5-min Rain = 0
KGU1 160549Z 04013KT M07/M08 A3047 RMK A01 T10671077  RH  094%=      5-min Rain = 0
KGU1 160550Z 04014KT M07/M08 A3047 RMK A01 T10671076  RH  094%=      5-min Rain = 0
KGU1 160551Z 04011KT M07/M08 A3047 RMK A01 T10661076  RH  094%=      5-min Rain = 0
KGU1 160552Z 05014KT M07/M08 A3047 RMK A01 T10661076  RH  094%=      5-min Rain = 0
KGU1 160553Z 05012KT M07/M08 A3047 RMK A01 T10661077  RH  093%=      5-min Rain = 0
KGU1 160554Z 05012KT M07/M08 A3047 RMK A01 T10661077  RH  093%=      5-min Rain = 0
KGU1 160555Z 05011KT M07/M08 A3047 RMK A01 T10661077  RH  093%=      5-min Rain = 0
KGU1 160556Z 05013KT M07/M08 A3047 RMK A01 T10661078  RH  092%=      5-min Rain = 0
KGU1 160557Z 05013KT M07/M08 A3047 RMK A01 T10661080  RH  091%=      5-min Rain = 0
KGU1 160558Z 06013KT M07/M08 A3047 RMK A01 T10661081  RH  091%=      5-min Rain = 0
KGU1 160559Z 05013KT M07/M08 A3047 RMK A01 T10661081  RH  091%=      5-min Rain = 0

Page generated in 0.0857 seconds.